<?xml version="1.0" encoding="UTF-8" standalone="no" ?>
<gpx xmlns="http://www.topografix.com/GPX/1/1" xmlns:xsi="http://www.w3.org/2001/XMLSchema-instance" xsi:schemaLocation="http://www.topografix.com/GPX/1/1 http://www.topografix.com/GPX/1/1/gpx.xsd" version="1.1" creator="VisuGPX - https://www.visugpx.com">
  <metadata>
    <name>VacancesDricouZoe</name>
  </metadata>
  <trk>
    <name><![CDATA[Journal actif: 2021-06-30 09:39]]></name>
    <trkseg>
      <trkpt lat="45.67449" lon="0.1605">
        <ele>31.86</ele>
        <time>2021-06-30T11:39:41Z</time>
      </trkpt>
      <trkpt lat="45.6745" lon="0.16053">
        <ele>31.38</ele>
        <time>2021-06-30T11:40:50Z</time>
      </trkpt>
      <trkpt lat="45.67452" lon="0.16048">
        <ele>30.9</ele>
        <time>2021-06-30T11:40:53Z</time>
      </trkpt>
      <trkpt lat="45.67514" lon="0.16044">
        <ele>31.86</ele>
        <time>2021-06-30T11:41:07Z</time>
      </trkpt>
      <trkpt lat="45.67588" lon="0.16011">
        <ele>34.26</ele>
        <time>2021-06-30T11:41:22Z</time>
      </trkpt>
      <trkpt lat="45.67616" lon="0.15983">
        <ele>35.71</ele>
        <time>2021-06-30T11:41:28Z</time>
      </trkpt>
      <trkpt lat="45.67621" lon="0.15981">
        <ele>35.71</ele>
        <time>2021-06-30T11:41:29Z</time>
      </trkpt>
      <trkpt lat="45.67629" lon="0.15981">
        <ele>35.71</ele>
        <time>2021-06-30T11:41:30Z</time>
      </trkpt>
      <trkpt lat="45.67629" lon="0.15981">
        <ele>35.71</ele>
        <time>2021-06-30T11:41:31Z</time>
      </trkpt>
      <trkpt lat="45.67632" lon="0.15984">
        <ele>35.71</ele>
        <time>2021-06-30T11:41:32Z</time>
      </trkpt>
      <trkpt lat="45.67635" lon="0.15988">
        <ele>35.71</ele>
        <time>2021-06-30T11:41:33Z</time>
      </trkpt>
      <trkpt lat="45.67665" lon="0.16055">
        <ele>37.15</ele>
        <time>2021-06-30T11:41:45Z</time>
      </trkpt>
      <trkpt lat="45.67667" lon="0.16059">
        <ele>37.15</ele>
        <time>2021-06-30T11:41:46Z</time>
      </trkpt>
      <trkpt lat="45.67674" lon="0.16056">
        <ele>37.15</ele>
        <time>2021-06-30T11:41:47Z</time>
      </trkpt>
      <trkpt lat="45.67674" lon="0.16056">
        <ele>37.15</ele>
        <time>2021-06-30T11:41:48Z</time>
      </trkpt>
      <trkpt lat="45.67678" lon="0.16054">
        <ele>37.15</ele>
        <time>2021-06-30T11:41:49Z</time>
      </trkpt>
      <trkpt lat="45.67682" lon="0.16052">
        <ele>37.15</ele>
        <time>2021-06-30T11:41:50Z</time>
      </trkpt>
      <trkpt lat="45.67687" lon="0.1605">
        <ele>37.63</ele>
        <time>2021-06-30T11:41:51Z</time>
      </trkpt>
      <trkpt lat="45.67784" lon="0.16013">
        <ele>38.59</ele>
        <time>2021-06-30T11:42:06Z</time>
      </trkpt>
      <trkpt lat="45.67788" lon="0.16011">
        <ele>38.59</ele>
        <time>2021-06-30T11:42:08Z</time>
      </trkpt>
      <trkpt lat="45.67791" lon="0.1601">
        <ele>38.59</ele>
        <time>2021-06-30T11:42:09Z</time>
      </trkpt>
      <trkpt lat="45.67795" lon="0.16006">
        <ele>38.59</ele>
        <time>2021-06-30T11:42:10Z</time>
      </trkpt>
      <trkpt lat="45.678" lon="0.15996">
        <ele>38.59</ele>
        <time>2021-06-30T11:42:11Z</time>
      </trkpt>
      <trkpt lat="45.678" lon="0.15996">
        <ele>38.59</ele>
        <time>2021-06-30T11:42:12Z</time>
      </trkpt>
      <trkpt lat="45.67801" lon="0.15989">
        <ele>38.59</ele>
        <time>2021-06-30T11:42:13Z</time>
      </trkpt>
      <trkpt lat="45.67805" lon="0.15976">
        <ele>38.11</ele>
        <time>2021-06-30T11:42:15Z</time>
      </trkpt>
      <trkpt lat="45.67806" lon="0.1597">
        <ele>38.11</ele>
        <time>2021-06-30T11:42:16Z</time>
      </trkpt>
      <trkpt lat="45.67806" lon="0.15964">
        <ele>37.63</ele>
        <time>2021-06-30T11:42:17Z</time>
      </trkpt>
      <trkpt lat="45.6781" lon="0.15927">
        <ele>36.67</ele>
        <time>2021-06-30T11:42:24Z</time>
      </trkpt>
      <trkpt lat="45.6781" lon="0.15927">
        <ele>37.15</ele>
        <time>2021-06-30T11:42:25Z</time>
      </trkpt>
      <trkpt lat="45.67811" lon="0.15926">
        <ele>37.15</ele>
        <time>2021-06-30T11:42:26Z</time>
      </trkpt>
      <trkpt lat="45.67862" lon="0.15924">
        <ele>39.07</ele>
        <time>2021-06-30T11:42:38Z</time>
      </trkpt>
      <trkpt lat="45.67873" lon="0.15924">
        <ele>40.99</ele>
        <time>2021-06-30T11:42:48Z</time>
      </trkpt>
      <trkpt lat="45.67877" lon="0.15924">
        <ele>40.99</ele>
        <time>2021-06-30T11:43:04Z</time>
      </trkpt>
      <trkpt lat="45.67877" lon="0.15918">
        <ele>40.99</ele>
        <time>2021-06-30T11:43:05Z</time>
      </trkpt>
      <trkpt lat="45.67877" lon="0.15918">
        <ele>40.99</ele>
        <time>2021-06-30T11:43:06Z</time>
      </trkpt>
      <trkpt lat="45.67877" lon="0.15915">
        <ele>40.51</ele>
        <time>2021-06-30T11:43:07Z</time>
      </trkpt>
      <trkpt lat="45.67877" lon="0.15911">
        <ele>40.51</ele>
        <time>2021-06-30T11:43:08Z</time>
      </trkpt>
      <trkpt lat="45.67873" lon="0.15806">
        <ele>37.63</ele>
        <time>2021-06-30T11:43:27Z</time>
      </trkpt>
      <trkpt lat="45.67876" lon="0.15699">
        <ele>35.71</ele>
        <time>2021-06-30T11:43:48Z</time>
      </trkpt>
      <trkpt lat="45.67866" lon="0.15682">
        <ele>34.26</ele>
        <time>2021-06-30T11:43:52Z</time>
      </trkpt>
      <trkpt lat="45.67865" lon="0.15676">
        <ele>34.26</ele>
        <time>2021-06-30T11:43:53Z</time>
      </trkpt>
      <trkpt lat="45.67858" lon="0.15558">
        <ele>28.5</ele>
        <time>2021-06-30T11:44:08Z</time>
      </trkpt>
      <trkpt lat="45.67853" lon="0.15464">
        <ele>29.46</ele>
        <time>2021-06-30T11:44:19Z</time>
      </trkpt>
      <trkpt lat="45.67846" lon="0.15305">
        <ele>28.98</ele>
        <time>2021-06-30T11:44:32Z</time>
      </trkpt>
      <trkpt lat="45.67831" lon="0.1504">
        <ele>28.98</ele>
        <time>2021-06-30T11:44:50Z</time>
      </trkpt>
      <trkpt lat="45.67826" lon="0.1496">
        <ele>29.46</ele>
        <time>2021-06-30T11:44:58Z</time>
      </trkpt>
      <trkpt lat="45.67826" lon="0.14953">
        <ele>29.46</ele>
        <time>2021-06-30T11:44:59Z</time>
      </trkpt>
      <trkpt lat="45.67826" lon="0.14947">
        <ele>29.46</ele>
        <time>2021-06-30T11:45:00Z</time>
      </trkpt>
      <trkpt lat="45.67838" lon="0.14932">
        <ele>29.94</ele>
        <time>2021-06-30T11:45:02Z</time>
      </trkpt>
      <trkpt lat="45.67839" lon="0.14925">
        <ele>29.94</ele>
        <time>2021-06-30T11:45:03Z</time>
      </trkpt>
      <trkpt lat="45.67839" lon="0.14913">
        <ele>29.94</ele>
        <time>2021-06-30T11:45:04Z</time>
      </trkpt>
      <trkpt lat="45.67834" lon="0.14902">
        <ele>29.94</ele>
        <time>2021-06-30T11:45:05Z</time>
      </trkpt>
      <trkpt lat="45.67834" lon="0.14902">
        <ele>29.94</ele>
        <time>2021-06-30T11:45:06Z</time>
      </trkpt>
      <trkpt lat="45.67834" lon="0.14902">
        <ele>29.94</ele>
        <time>2021-06-30T11:45:07Z</time>
      </trkpt>
      <trkpt lat="45.67821" lon="0.14883">
        <ele>30.42</ele>
        <time>2021-06-30T11:45:08Z</time>
      </trkpt>
      <trkpt lat="45.6782" lon="0.14871">
        <ele>29.94</ele>
        <time>2021-06-30T11:45:09Z</time>
      </trkpt>
      <trkpt lat="45.67819" lon="0.14847">
        <ele>29.46</ele>
        <time>2021-06-30T11:45:10Z</time>
      </trkpt>
      <trkpt lat="45.67818" lon="0.14833">
        <ele>29.46</ele>
        <time>2021-06-30T11:45:11Z</time>
      </trkpt>
      <trkpt lat="45.67811" lon="0.14683">
        <ele>28.98</ele>
        <time>2021-06-30T11:45:21Z</time>
      </trkpt>
      <trkpt lat="45.67798" lon="0.14474">
        <ele>29.94</ele>
        <time>2021-06-30T11:45:34Z</time>
      </trkpt>
      <trkpt lat="45.67795" lon="0.14454">
        <ele>30.9</ele>
        <time>2021-06-30T11:45:36Z</time>
      </trkpt>
      <trkpt lat="45.67794" lon="0.14445">
        <ele>30.42</ele>
        <time>2021-06-30T11:45:37Z</time>
      </trkpt>
      <trkpt lat="45.67798" lon="0.14436">
        <ele>30.9</ele>
        <time>2021-06-30T11:45:38Z</time>
      </trkpt>
      <trkpt lat="45.67802" lon="0.14432">
        <ele>30.9</ele>
        <time>2021-06-30T11:45:39Z</time>
      </trkpt>
      <trkpt lat="45.67807" lon="0.14422">
        <ele>30.9</ele>
        <time>2021-06-30T11:45:40Z</time>
      </trkpt>
      <trkpt lat="45.67807" lon="0.14409">
        <ele>30.9</ele>
        <time>2021-06-30T11:45:41Z</time>
      </trkpt>
      <trkpt lat="45.67805" lon="0.14402">
        <ele>31.38</ele>
        <time>2021-06-30T11:45:42Z</time>
      </trkpt>
      <trkpt lat="45.67802" lon="0.14393">
        <ele>31.86</ele>
        <time>2021-06-30T11:45:43Z</time>
      </trkpt>
      <trkpt lat="45.67795" lon="0.14388">
        <ele>32.34</ele>
        <time>2021-06-30T11:45:44Z</time>
      </trkpt>
      <trkpt lat="45.67788" lon="0.14384">
        <ele>32.34</ele>
        <time>2021-06-30T11:45:45Z</time>
      </trkpt>
      <trkpt lat="45.67781" lon="0.14367">
        <ele>32.82</ele>
        <time>2021-06-30T11:45:46Z</time>
      </trkpt>
      <trkpt lat="45.67781" lon="0.14367">
        <ele>33.3</ele>
        <time>2021-06-30T11:45:47Z</time>
      </trkpt>
      <trkpt lat="45.67776" lon="0.14358">
        <ele>33.78</ele>
        <time>2021-06-30T11:45:48Z</time>
      </trkpt>
      <trkpt lat="45.67772" lon="0.14349">
        <ele>34.26</ele>
        <time>2021-06-30T11:45:49Z</time>
      </trkpt>
      <trkpt lat="45.67729" lon="0.14192">
        <ele>41.47</ele>
        <time>2021-06-30T11:45:59Z</time>
      </trkpt>
      <trkpt lat="45.67682" lon="0.14019">
        <ele>50.13</ele>
        <time>2021-06-30T11:46:12Z</time>
      </trkpt>
      <trkpt lat="45.67668" lon="0.13953">
        <ele>51.57</ele>
        <time>2021-06-30T11:46:15Z</time>
      </trkpt>
      <trkpt lat="45.67667" lon="0.13938">
        <ele>52.53</ele>
        <time>2021-06-30T11:46:16Z</time>
      </trkpt>
      <trkpt lat="45.67667" lon="0.13938">
        <ele>53.01</ele>
        <time>2021-06-30T11:46:17Z</time>
      </trkpt>
      <trkpt lat="45.6767" lon="0.13907">
        <ele>54.45</ele>
        <time>2021-06-30T11:46:18Z</time>
      </trkpt>
      <trkpt lat="45.6767" lon="0.13907">
        <ele>54.93</ele>
        <time>2021-06-30T11:46:19Z</time>
      </trkpt>
      <trkpt lat="45.6767" lon="0.13893">
        <ele>54.93</ele>
        <time>2021-06-30T11:46:20Z</time>
      </trkpt>
      <trkpt lat="45.67672" lon="0.1388">
        <ele>55.89</ele>
        <time>2021-06-30T11:46:21Z</time>
      </trkpt>
      <trkpt lat="45.67684" lon="0.13841">
        <ele>56.37</ele>
        <time>2021-06-30T11:46:25Z</time>
      </trkpt>
      <trkpt lat="45.67687" lon="0.13832">
        <ele>55.89</ele>
        <time>2021-06-30T11:46:26Z</time>
      </trkpt>
      <trkpt lat="45.67689" lon="0.13824">
        <ele>56.37</ele>
        <time>2021-06-30T11:46:27Z</time>
      </trkpt>
      <trkpt lat="45.67692" lon="0.13817">
        <ele>55.89</ele>
        <time>2021-06-30T11:46:28Z</time>
      </trkpt>
      <trkpt lat="45.67696" lon="0.1381">
        <ele>55.89</ele>
        <time>2021-06-30T11:46:29Z</time>
      </trkpt>
      <trkpt lat="45.677" lon="0.13802">
        <ele>56.37</ele>
        <time>2021-06-30T11:46:30Z</time>
      </trkpt>
      <trkpt lat="45.67702" lon="0.1379">
        <ele>56.37</ele>
        <time>2021-06-30T11:46:31Z</time>
      </trkpt>
      <trkpt lat="45.677" lon="0.13781">
        <ele>56.37</ele>
        <time>2021-06-30T11:46:32Z</time>
      </trkpt>
      <trkpt lat="45.67697" lon="0.13771">
        <ele>56.37</ele>
        <time>2021-06-30T11:46:33Z</time>
      </trkpt>
      <trkpt lat="45.67695" lon="0.13761">
        <ele>56.37</ele>
        <time>2021-06-30T11:46:34Z</time>
      </trkpt>
      <trkpt lat="45.67696" lon="0.13749">
        <ele>56.37</ele>
        <time>2021-06-30T11:46:35Z</time>
      </trkpt>
      <trkpt lat="45.67697" lon="0.13738">
        <ele>56.86</ele>
        <time>2021-06-30T11:46:36Z</time>
      </trkpt>
      <trkpt lat="45.67698" lon="0.13725">
        <ele>57.34</ele>
        <time>2021-06-30T11:46:37Z</time>
      </trkpt>
      <trkpt lat="45.67699" lon="0.13712">
        <ele>56.86</ele>
        <time>2021-06-30T11:46:38Z</time>
      </trkpt>
      <trkpt lat="45.67704" lon="0.13696">
        <ele>56.86</ele>
        <time>2021-06-30T11:46:39Z</time>
      </trkpt>
      <trkpt lat="45.67709" lon="0.13681">
        <ele>56.37</ele>
        <time>2021-06-30T11:46:40Z</time>
      </trkpt>
      <trkpt lat="45.67715" lon="0.13666">
        <ele>56.37</ele>
        <time>2021-06-30T11:46:41Z</time>
      </trkpt>
      <trkpt lat="45.67807" lon="0.13535">
        <ele>58.78</ele>
        <time>2021-06-30T11:46:50Z</time>
      </trkpt>
      <trkpt lat="45.679" lon="0.13456">
        <ele>61.18</ele>
        <time>2021-06-30T11:46:59Z</time>
      </trkpt>
      <trkpt lat="45.67966" lon="0.13432">
        <ele>60.22</ele>
        <time>2021-06-30T11:47:05Z</time>
      </trkpt>
      <trkpt lat="45.67975" lon="0.13425">
        <ele>61.18</ele>
        <time>2021-06-30T11:47:06Z</time>
      </trkpt>
      <trkpt lat="45.67984" lon="0.13418">
        <ele>61.66</ele>
        <time>2021-06-30T11:47:07Z</time>
      </trkpt>
      <trkpt lat="45.67993" lon="0.13411">
        <ele>62.62</ele>
        <time>2021-06-30T11:47:08Z</time>
      </trkpt>
      <trkpt lat="45.67997" lon="0.13403">
        <ele>64.07</ele>
        <time>2021-06-30T11:47:09Z</time>
      </trkpt>
      <trkpt lat="45.68" lon="0.1339">
        <ele>64.07</ele>
        <time>2021-06-30T11:47:10Z</time>
      </trkpt>
      <trkpt lat="45.68002" lon="0.13377">
        <ele>64.55</ele>
        <time>2021-06-30T11:47:11Z</time>
      </trkpt>
      <trkpt lat="45.68005" lon="0.13366">
        <ele>65.03</ele>
        <time>2021-06-30T11:47:12Z</time>
      </trkpt>
      <trkpt lat="45.68005" lon="0.13355">
        <ele>65.03</ele>
        <time>2021-06-30T11:47:13Z</time>
      </trkpt>
      <trkpt lat="45.68004" lon="0.13344">
        <ele>65.03</ele>
        <time>2021-06-30T11:47:14Z</time>
      </trkpt>
      <trkpt lat="45.68003" lon="0.13333">
        <ele>65.03</ele>
        <time>2021-06-30T11:47:15Z</time>
      </trkpt>
      <trkpt lat="45.68" lon="0.13314">
        <ele>65.51</ele>
        <time>2021-06-30T11:47:17Z</time>
      </trkpt>
      <trkpt lat="45.68" lon="0.13306">
        <ele>65.51</ele>
        <time>2021-06-30T11:47:18Z</time>
      </trkpt>
      <trkpt lat="45.68007" lon="0.13294">
        <ele>65.99</ele>
        <time>2021-06-30T11:47:19Z</time>
      </trkpt>
      <trkpt lat="45.68007" lon="0.13294">
        <ele>66.47</ele>
        <time>2021-06-30T11:47:20Z</time>
      </trkpt>
      <trkpt lat="45.68009" lon="0.13287">
        <ele>66.47</ele>
        <time>2021-06-30T11:47:21Z</time>
      </trkpt>
      <trkpt lat="45.68007" lon="0.13273">
        <ele>66.47</ele>
        <time>2021-06-30T11:47:22Z</time>
      </trkpt>
      <trkpt lat="45.68006" lon="0.13267">
        <ele>66.95</ele>
        <time>2021-06-30T11:47:23Z</time>
      </trkpt>
      <trkpt lat="45.67997" lon="0.13262">
        <ele>66.95</ele>
        <time>2021-06-30T11:47:24Z</time>
      </trkpt>
      <trkpt lat="45.67991" lon="0.13261">
        <ele>67.43</ele>
        <time>2021-06-30T11:47:25Z</time>
      </trkpt>
      <trkpt lat="45.67987" lon="0.13261">
        <ele>67.43</ele>
        <time>2021-06-30T11:47:26Z</time>
      </trkpt>
      <trkpt lat="45.67969" lon="0.13263">
        <ele>67.43</ele>
        <time>2021-06-30T11:47:27Z</time>
      </trkpt>
      <trkpt lat="45.67969" lon="0.13263">
        <ele>67.91</ele>
        <time>2021-06-30T11:47:28Z</time>
      </trkpt>
      <trkpt lat="45.67963" lon="0.13259">
        <ele>68.39</ele>
        <time>2021-06-30T11:47:29Z</time>
      </trkpt>
      <trkpt lat="45.67957" lon="0.13254">
        <ele>68.39</ele>
        <time>2021-06-30T11:47:30Z</time>
      </trkpt>
      <trkpt lat="45.67887" lon="0.13195">
        <ele>69.35</ele>
        <time>2021-06-30T11:47:41Z</time>
      </trkpt>
      <trkpt lat="45.67882" lon="0.1319">
        <ele>68.87</ele>
        <time>2021-06-30T11:47:42Z</time>
      </trkpt>
      <trkpt lat="45.67877" lon="0.13185">
        <ele>68.87</ele>
        <time>2021-06-30T11:47:43Z</time>
      </trkpt>
      <trkpt lat="45.67876" lon="0.13166">
        <ele>69.35</ele>
        <time>2021-06-30T11:47:44Z</time>
      </trkpt>
      <trkpt lat="45.67876" lon="0.13166">
        <ele>69.35</ele>
        <time>2021-06-30T11:47:45Z</time>
      </trkpt>
      <trkpt lat="45.67872" lon="0.13145">
        <ele>68.87</ele>
        <time>2021-06-30T11:47:46Z</time>
      </trkpt>
      <trkpt lat="45.67865" lon="0.13138">
        <ele>68.87</ele>
        <time>2021-06-30T11:47:47Z</time>
      </trkpt>
      <trkpt lat="45.67865" lon="0.13138">
        <ele>68.87</ele>
        <time>2021-06-30T11:47:48Z</time>
      </trkpt>
      <trkpt lat="45.67859" lon="0.13135">
        <ele>68.87</ele>
        <time>2021-06-30T11:47:49Z</time>
      </trkpt>
      <trkpt lat="45.67852" lon="0.13133">
        <ele>68.87</ele>
        <time>2021-06-30T11:47:50Z</time>
      </trkpt>
      <trkpt lat="45.67847" lon="0.13135">
        <ele>68.87</ele>
        <time>2021-06-30T11:47:51Z</time>
      </trkpt>
      <trkpt lat="45.67841" lon="0.13137">
        <ele>68.87</ele>
        <time>2021-06-30T11:47:52Z</time>
      </trkpt>
      <trkpt lat="45.67833" lon="0.13142">
        <ele>68.87</ele>
        <time>2021-06-30T11:47:53Z</time>
      </trkpt>
      <trkpt lat="45.6783" lon="0.1315">
        <ele>68.87</ele>
        <time>2021-06-30T11:47:54Z</time>
      </trkpt>
      <trkpt lat="45.67828" lon="0.13158">
        <ele>68.87</ele>
        <time>2021-06-30T11:47:55Z</time>
      </trkpt>
      <trkpt lat="45.67829" lon="0.13169">
        <ele>68.39</ele>
        <time>2021-06-30T11:47:56Z</time>
      </trkpt>
      <trkpt lat="45.6783" lon="0.13178">
        <ele>68.39</ele>
        <time>2021-06-30T11:47:57Z</time>
      </trkpt>
      <trkpt lat="45.67834" lon="0.13186">
        <ele>68.39</ele>
        <time>2021-06-30T11:47:58Z</time>
      </trkpt>
      <trkpt lat="45.67838" lon="0.13195">
        <ele>68.39</ele>
        <time>2021-06-30T11:47:59Z</time>
      </trkpt>
      <trkpt lat="45.6784" lon="0.13206">
        <ele>67.91</ele>
        <time>2021-06-30T11:48:00Z</time>
      </trkpt>
      <trkpt lat="45.6784" lon="0.13215">
        <ele>67.43</ele>
        <time>2021-06-30T11:48:01Z</time>
      </trkpt>
      <trkpt lat="45.67843" lon="0.13238">
        <ele>66.95</ele>
        <time>2021-06-30T11:48:02Z</time>
      </trkpt>
      <trkpt lat="45.67843" lon="0.13238">
        <ele>65.99</ele>
        <time>2021-06-30T11:48:03Z</time>
      </trkpt>
      <trkpt lat="45.67807" lon="0.13408">
        <ele>57.34</ele>
        <time>2021-06-30T11:48:13Z</time>
      </trkpt>
      <trkpt lat="45.67746" lon="0.13522">
        <ele>52.05</ele>
        <time>2021-06-30T11:48:21Z</time>
      </trkpt>
      <trkpt lat="45.67556" lon="0.13805">
        <ele>47.72</ele>
        <time>2021-06-30T11:48:37Z</time>
      </trkpt>
      <trkpt lat="45.67459" lon="0.14005">
        <ele>49.65</ele>
        <time>2021-06-30T11:48:47Z</time>
      </trkpt>
      <trkpt lat="45.67433" lon="0.1405">
        <ele>49.65</ele>
        <time>2021-06-30T11:48:50Z</time>
      </trkpt>
      <trkpt lat="45.67427" lon="0.14063">
        <ele>49.16</ele>
        <time>2021-06-30T11:48:51Z</time>
      </trkpt>
      <trkpt lat="45.6742" lon="0.14074">
        <ele>48.2</ele>
        <time>2021-06-30T11:48:52Z</time>
      </trkpt>
      <trkpt lat="45.67412" lon="0.1408">
        <ele>47.72</ele>
        <time>2021-06-30T11:48:53Z</time>
      </trkpt>
      <trkpt lat="45.67403" lon="0.14087">
        <ele>47.24</ele>
        <time>2021-06-30T11:48:54Z</time>
      </trkpt>
      <trkpt lat="45.67383" lon="0.14096">
        <ele>47.72</ele>
        <time>2021-06-30T11:48:55Z</time>
      </trkpt>
      <trkpt lat="45.67373" lon="0.14099">
        <ele>48.68</ele>
        <time>2021-06-30T11:48:56Z</time>
      </trkpt>
      <trkpt lat="45.67373" lon="0.14099">
        <ele>47.72</ele>
        <time>2021-06-30T11:48:57Z</time>
      </trkpt>
      <trkpt lat="45.67352" lon="0.14095">
        <ele>47.24</ele>
        <time>2021-06-30T11:48:58Z</time>
      </trkpt>
      <trkpt lat="45.67352" lon="0.14095">
        <ele>46.28</ele>
        <time>2021-06-30T11:48:59Z</time>
      </trkpt>
      <trkpt lat="45.67331" lon="0.14089">
        <ele>45.32</ele>
        <time>2021-06-30T11:49:00Z</time>
      </trkpt>
      <trkpt lat="45.67331" lon="0.14089">
        <ele>44.84</ele>
        <time>2021-06-30T11:49:01Z</time>
      </trkpt>
      <trkpt lat="45.67321" lon="0.14081">
        <ele>44.84</ele>
        <time>2021-06-30T11:49:02Z</time>
      </trkpt>
      <trkpt lat="45.6731" lon="0.14071">
        <ele>44.36</ele>
        <time>2021-06-30T11:49:03Z</time>
      </trkpt>
      <trkpt lat="45.67299" lon="0.14061">
        <ele>44.36</ele>
        <time>2021-06-30T11:49:04Z</time>
      </trkpt>
      <trkpt lat="45.67143" lon="0.13869">
        <ele>47.72</ele>
        <time>2021-06-30T11:49:15Z</time>
      </trkpt>
      <trkpt lat="45.66889" lon="0.13552">
        <ele>46.76</ele>
        <time>2021-06-30T11:49:32Z</time>
      </trkpt>
      <trkpt lat="45.66628" lon="0.1324">
        <ele>42.92</ele>
        <time>2021-06-30T11:49:46Z</time>
      </trkpt>
      <trkpt lat="45.6623" lon="0.12785">
        <ele>34.74</ele>
        <time>2021-06-30T11:50:08Z</time>
      </trkpt>
      <trkpt lat="45.6593" lon="0.12434">
        <ele>38.59</ele>
        <time>2021-06-30T11:50:24Z</time>
      </trkpt>
      <trkpt lat="45.65612" lon="0.12084">
        <ele>52.05</ele>
        <time>2021-06-30T11:50:41Z</time>
      </trkpt>
      <trkpt lat="45.65404" lon="0.11939">
        <ele>56.86</ele>
        <time>2021-06-30T11:50:51Z</time>
      </trkpt>
      <trkpt lat="45.65177" lon="0.11861">
        <ele>57.82</ele>
        <time>2021-06-30T11:51:01Z</time>
      </trkpt>
      <trkpt lat="45.64915" lon="0.1185">
        <ele>54.93</ele>
        <time>2021-06-30T11:51:12Z</time>
      </trkpt>
      <trkpt lat="45.64578" lon="0.1185">
        <ele>52.53</ele>
        <time>2021-06-30T11:51:26Z</time>
      </trkpt>
      <trkpt lat="45.64054" lon="0.11851">
        <ele>39.55</ele>
        <time>2021-06-30T11:51:47Z</time>
      </trkpt>
      <trkpt lat="45.63731" lon="0.11814">
        <ele>40.51</ele>
        <time>2021-06-30T11:52:01Z</time>
      </trkpt>
      <trkpt lat="45.63517" lon="0.11724">
        <ele>43.4</ele>
        <time>2021-06-30T11:52:12Z</time>
      </trkpt>
      <trkpt lat="45.63233" lon="0.11527">
        <ele>49.65</ele>
        <time>2021-06-30T11:52:26Z</time>
      </trkpt>
      <trkpt lat="45.62934" lon="0.11303">
        <ele>44.84</ele>
        <time>2021-06-30T11:52:40Z</time>
      </trkpt>
      <trkpt lat="45.62459" lon="0.10932">
        <ele>43.88</ele>
        <time>2021-06-30T11:53:01Z</time>
      </trkpt>
      <trkpt lat="45.62214" lon="0.10671">
        <ele>50.61</ele>
        <time>2021-06-30T11:53:13Z</time>
      </trkpt>
      <trkpt lat="45.61884" lon="0.10253">
        <ele>65.51</ele>
        <time>2021-06-30T11:53:31Z</time>
      </trkpt>
      <trkpt lat="45.61555" lon="0.09824">
        <ele>55.89</ele>
        <time>2021-06-30T11:53:50Z</time>
      </trkpt>
      <trkpt lat="45.61379" lon="0.09512">
        <ele>53.97</ele>
        <time>2021-06-30T11:54:01Z</time>
      </trkpt>
      <trkpt lat="45.61206" lon="0.09105">
        <ele>49.16</ele>
        <time>2021-06-30T11:54:14Z</time>
      </trkpt>
      <trkpt lat="45.60993" lon="0.08537">
        <ele>41.47</ele>
        <time>2021-06-30T11:54:31Z</time>
      </trkpt>
      <trkpt lat="45.60908" lon="0.08159">
        <ele>40.03</ele>
        <time>2021-06-30T11:54:43Z</time>
      </trkpt>
      <trkpt lat="45.6082" lon="0.07873">
        <ele>53.49</ele>
        <time>2021-06-30T11:54:52Z</time>
      </trkpt>
      <trkpt lat="45.60685" lon="0.07633">
        <ele>63.58</ele>
        <time>2021-06-30T11:55:01Z</time>
      </trkpt>
      <trkpt lat="45.60521" lon="0.07458">
        <ele>69.35</ele>
        <time>2021-06-30T11:55:10Z</time>
      </trkpt>
      <trkpt lat="45.60296" lon="0.07321">
        <ele>67.91</ele>
        <time>2021-06-30T11:55:20Z</time>
      </trkpt>
      <trkpt lat="45.59974" lon="0.07146">
        <ele>62.62</ele>
        <time>2021-06-30T11:55:34Z</time>
      </trkpt>
      <trkpt lat="45.59835" lon="0.07023">
        <ele>59.74</ele>
        <time>2021-06-30T11:55:41Z</time>
      </trkpt>
      <trkpt lat="45.59671" lon="0.06761">
        <ele>55.41</ele>
        <time>2021-06-30T11:55:51Z</time>
      </trkpt>
      <trkpt lat="45.59402" lon="0.0631">
        <ele>58.3</ele>
        <time>2021-06-30T11:56:09Z</time>
      </trkpt>
      <trkpt lat="45.5914" lon="0.05853">
        <ele>50.13</ele>
        <time>2021-06-30T11:56:27Z</time>
      </trkpt>
      <trkpt lat="45.59021" lon="0.0557">
        <ele>44.36</ele>
        <time>2021-06-30T11:56:37Z</time>
      </trkpt>
      <trkpt lat="45.58797" lon="0.04923">
        <ele>37.15</ele>
        <time>2021-06-30T11:56:57Z</time>
      </trkpt>
      <trkpt lat="45.58679" lon="0.04673">
        <ele>38.11</ele>
        <time>2021-06-30T11:57:05Z</time>
      </trkpt>
      <trkpt lat="45.58532" lon="0.04487">
        <ele>38.11</ele>
        <time>2021-06-30T11:57:13Z</time>
      </trkpt>
      <trkpt lat="45.58226" lon="0.04128">
        <ele>50.61</ele>
        <time>2021-06-30T11:57:29Z</time>
      </trkpt>
      <trkpt lat="45.5793" lon="0.03778">
        <ele>62.62</ele>
        <time>2021-06-30T11:57:45Z</time>
      </trkpt>
      <trkpt lat="45.57624" lon="0.03415">
        <ele>68.39</ele>
        <time>2021-06-30T11:58:03Z</time>
      </trkpt>
      <trkpt lat="45.57328" lon="0.03064">
        <ele>65.99</ele>
        <time>2021-06-30T11:58:20Z</time>
      </trkpt>
      <trkpt lat="45.57105" lon="0.0276">
        <ele>64.07</ele>
        <time>2021-06-30T11:58:33Z</time>
      </trkpt>
      <trkpt lat="45.56835" lon="0.02274">
        <ele>67.91</ele>
        <time>2021-06-30T11:58:51Z</time>
      </trkpt>
      <trkpt lat="45.56513" lon="0.01691">
        <ele>61.18</ele>
        <time>2021-06-30T11:59:12Z</time>
      </trkpt>
      <trkpt lat="45.56232" lon="0.01181">
        <ele>58.78</ele>
        <time>2021-06-30T11:59:30Z</time>
      </trkpt>
      <trkpt lat="45.55932" lon="0.00643">
        <ele>75.6</ele>
        <time>2021-06-30T11:59:50Z</time>
      </trkpt>
      <trkpt lat="45.55682" lon="0.00188">
        <ele>86.66</ele>
        <time>2021-06-30T12:00:07Z</time>
      </trkpt>
      <trkpt lat="45.55477" lon="-0.00193">
        <ele>93.87</ele>
        <time>2021-06-30T12:00:21Z</time>
      </trkpt>
      <trkpt lat="45.55249" lon="-0.00614">
        <ele>80.89</ele>
        <time>2021-06-30T12:00:36Z</time>
      </trkpt>
      <trkpt lat="45.55149" lon="-0.00865">
        <ele>74.16</ele>
        <time>2021-06-30T12:00:44Z</time>
      </trkpt>
      <trkpt lat="45.54849" lon="-0.0164">
        <ele>55.89</ele>
        <time>2021-06-30T12:01:08Z</time>
      </trkpt>
      <trkpt lat="45.54638" lon="-0.02222">
        <ele>65.03</ele>
        <time>2021-06-30T12:01:26Z</time>
      </trkpt>
      <trkpt lat="45.54577" lon="-0.02537">
        <ele>71.76</ele>
        <time>2021-06-30T12:01:35Z</time>
      </trkpt>
      <trkpt lat="45.54556" lon="-0.02915">
        <ele>74.16</ele>
        <time>2021-06-30T12:01:45Z</time>
      </trkpt>
      <trkpt lat="45.54533" lon="-0.03426">
        <ele>74.16</ele>
        <time>2021-06-30T12:01:59Z</time>
      </trkpt>
      <trkpt lat="45.54476" lon="-0.03706">
        <ele>76.56</ele>
        <time>2021-06-30T12:02:07Z</time>
      </trkpt>
      <trkpt lat="45.54376" lon="-0.03958">
        <ele>87.62</ele>
        <time>2021-06-30T12:02:15Z</time>
      </trkpt>
      <trkpt lat="45.5423" lon="-0.04186">
        <ele>101.56</ele>
        <time>2021-06-30T12:02:24Z</time>
      </trkpt>
      <trkpt lat="45.54058" lon="-0.04347">
        <ele>112.61</ele>
        <time>2021-06-30T12:02:33Z</time>
      </trkpt>
      <trkpt lat="45.53824" lon="-0.04533">
        <ele>123.19</ele>
        <time>2021-06-30T12:02:45Z</time>
      </trkpt>
      <trkpt lat="45.53682" lon="-0.04719">
        <ele>123.67</ele>
        <time>2021-06-30T12:02:53Z</time>
      </trkpt>
      <trkpt lat="45.53508" lon="-0.05037">
        <ele>116.46</ele>
        <time>2021-06-30T12:03:04Z</time>
      </trkpt>
      <trkpt lat="45.53136" lon="-0.05727">
        <ele>96.75</ele>
        <time>2021-06-30T12:03:26Z</time>
      </trkpt>
      <trkpt lat="45.52994" lon="-0.06049">
        <ele>86.18</ele>
        <time>2021-06-30T12:03:37Z</time>
      </trkpt>
      <trkpt lat="45.52835" lon="-0.06385">
        <ele>78.97</ele>
        <time>2021-06-30T12:03:48Z</time>
      </trkpt>
      <trkpt lat="45.52672" lon="-0.06592">
        <ele>74.16</ele>
        <time>2021-06-30T12:03:56Z</time>
      </trkpt>
      <trkpt lat="45.52486" lon="-0.06839">
        <ele>63.1</ele>
        <time>2021-06-30T12:04:07Z</time>
      </trkpt>
      <trkpt lat="45.52374" lon="-0.07067">
        <ele>52.53</ele>
        <time>2021-06-30T12:04:16Z</time>
      </trkpt>
      <trkpt lat="45.52276" lon="-0.07389">
        <ele>52.05</ele>
        <time>2021-06-30T12:04:25Z</time>
      </trkpt>
      <trkpt lat="45.52234" lon="-0.07677">
        <ele>54.93</ele>
        <time>2021-06-30T12:04:34Z</time>
      </trkpt>
      <trkpt lat="45.52237" lon="-0.07979">
        <ele>50.61</ele>
        <time>2021-06-30T12:04:42Z</time>
      </trkpt>
      <trkpt lat="45.52275" lon="-0.08538">
        <ele>42.44</ele>
        <time>2021-06-30T12:04:57Z</time>
      </trkpt>
      <trkpt lat="45.52264" lon="-0.08842">
        <ele>41.47</ele>
        <time>2021-06-30T12:05:05Z</time>
      </trkpt>
      <trkpt lat="45.52173" lon="-0.09504">
        <ele>43.88</ele>
        <time>2021-06-30T12:05:23Z</time>
      </trkpt>
      <trkpt lat="45.52109" lon="-0.09814">
        <ele>42.92</ele>
        <time>2021-06-30T12:05:32Z</time>
      </trkpt>
      <trkpt lat="45.51999" lon="-0.10063">
        <ele>45.8</ele>
        <time>2021-06-30T12:05:40Z</time>
      </trkpt>
      <trkpt lat="45.51851" lon="-0.10259">
        <ele>54.45</ele>
        <time>2021-06-30T12:05:48Z</time>
      </trkpt>
      <trkpt lat="45.51419" lon="-0.10734">
        <ele>71.76</ele>
        <time>2021-06-30T12:06:09Z</time>
      </trkpt>
      <trkpt lat="45.51002" lon="-0.11192">
        <ele>82.81</ele>
        <time>2021-06-30T12:06:29Z</time>
      </trkpt>
      <trkpt lat="45.50588" lon="-0.11645">
        <ele>68.39</ele>
        <time>2021-06-30T12:06:49Z</time>
      </trkpt>
      <trkpt lat="45.50193" lon="-0.12076">
        <ele>58.78</ele>
        <time>2021-06-30T12:07:07Z</time>
      </trkpt>
      <trkpt lat="45.49847" lon="-0.12445">
        <ele>47.72</ele>
        <time>2021-06-30T12:07:25Z</time>
      </trkpt>
      <trkpt lat="45.49586" lon="-0.12668">
        <ele>50.13</ele>
        <time>2021-06-30T12:07:37Z</time>
      </trkpt>
      <trkpt lat="45.49232" lon="-0.12914">
        <ele>52.05</ele>
        <time>2021-06-30T12:07:53Z</time>
      </trkpt>
      <trkpt lat="45.49017" lon="-0.12999">
        <ele>55.41</ele>
        <time>2021-06-30T12:08:02Z</time>
      </trkpt>
      <trkpt lat="45.48705" lon="-0.13043">
        <ele>60.7</ele>
        <time>2021-06-30T12:08:14Z</time>
      </trkpt>
      <trkpt lat="45.48122" lon="-0.13106">
        <ele>72.72</ele>
        <time>2021-06-30T12:08:36Z</time>
      </trkpt>
      <trkpt lat="45.47723" lon="-0.13198">
        <ele>71.76</ele>
        <time>2021-06-30T12:08:51Z</time>
      </trkpt>
      <trkpt lat="45.47211" lon="-0.1332">
        <ele>69.83</ele>
        <time>2021-06-30T12:09:10Z</time>
      </trkpt>
      <trkpt lat="45.46799" lon="-0.13375">
        <ele>65.51</ele>
        <time>2021-06-30T12:09:26Z</time>
      </trkpt>
      <trkpt lat="45.4658" lon="-0.13463">
        <ele>64.55</ele>
        <time>2021-06-30T12:09:36Z</time>
      </trkpt>
      <trkpt lat="45.4636" lon="-0.13619">
        <ele>64.07</ele>
        <time>2021-06-30T12:09:46Z</time>
      </trkpt>
      <trkpt lat="45.46186" lon="-0.13811">
        <ele>65.51</ele>
        <time>2021-06-30T12:09:55Z</time>
      </trkpt>
      <trkpt lat="45.46011" lon="-0.14106">
        <ele>69.35</ele>
        <time>2021-06-30T12:10:05Z</time>
      </trkpt>
      <trkpt lat="45.45767" lon="-0.14543">
        <ele>73.2</ele>
        <time>2021-06-30T12:10:22Z</time>
      </trkpt>
      <trkpt lat="45.45465" lon="-0.15024">
        <ele>78</ele>
        <time>2021-06-30T12:10:39Z</time>
      </trkpt>
      <trkpt lat="45.45078" lon="-0.15645">
        <ele>87.14</ele>
        <time>2021-06-30T12:11:02Z</time>
      </trkpt>
      <trkpt lat="45.44606" lon="-0.16409">
        <ele>96.27</ele>
        <time>2021-06-30T12:11:28Z</time>
      </trkpt>
      <trkpt lat="45.44399" lon="-0.16775">
        <ele>94.35</ele>
        <time>2021-06-30T12:11:40Z</time>
      </trkpt>
      <trkpt lat="45.44229" lon="-0.17019">
        <ele>95.31</ele>
        <time>2021-06-30T12:11:49Z</time>
      </trkpt>
      <trkpt lat="45.44006" lon="-0.17224">
        <ele>93.87</ele>
        <time>2021-06-30T12:11:58Z</time>
      </trkpt>
      <trkpt lat="45.43809" lon="-0.17332">
        <ele>93.87</ele>
        <time>2021-06-30T12:12:07Z</time>
      </trkpt>
      <trkpt lat="45.43562" lon="-0.17394">
        <ele>95.79</ele>
        <time>2021-06-30T12:12:17Z</time>
      </trkpt>
      <trkpt lat="45.43326" lon="-0.17384">
        <ele>101.08</ele>
        <time>2021-06-30T12:12:26Z</time>
      </trkpt>
      <trkpt lat="45.42867" lon="-0.1729">
        <ele>97.23</ele>
        <time>2021-06-30T12:12:42Z</time>
      </trkpt>
      <trkpt lat="45.4259" lon="-0.17284">
        <ele>92.42</ele>
        <time>2021-06-30T12:12:52Z</time>
      </trkpt>
      <trkpt lat="45.42346" lon="-0.17346">
        <ele>96.27</ele>
        <time>2021-06-30T12:13:02Z</time>
      </trkpt>
      <trkpt lat="45.42089" lon="-0.17447">
        <ele>96.27</ele>
        <time>2021-06-30T12:13:12Z</time>
      </trkpt>
      <trkpt lat="45.41805" lon="-0.17531">
        <ele>90.5</ele>
        <time>2021-06-30T12:13:23Z</time>
      </trkpt>
      <trkpt lat="45.41511" lon="-0.17583">
        <ele>96.75</ele>
        <time>2021-06-30T12:13:35Z</time>
      </trkpt>
      <trkpt lat="45.41303" lon="-0.17684">
        <ele>104.44</ele>
        <time>2021-06-30T12:13:44Z</time>
      </trkpt>
      <trkpt lat="45.4108" lon="-0.17796">
        <ele>94.35</ele>
        <time>2021-06-30T12:13:56Z</time>
      </trkpt>
      <trkpt lat="45.4087" lon="-0.17847">
        <ele>90.98</ele>
        <time>2021-06-30T12:14:05Z</time>
      </trkpt>
      <trkpt lat="45.40597" lon="-0.17844">
        <ele>100.11</ele>
        <time>2021-06-30T12:14:16Z</time>
      </trkpt>
      <trkpt lat="45.40324" lon="-0.17857">
        <ele>104.92</ele>
        <time>2021-06-30T12:14:27Z</time>
      </trkpt>
      <trkpt lat="45.3979" lon="-0.17905">
        <ele>100.11</ele>
        <time>2021-06-30T12:14:47Z</time>
      </trkpt>
      <trkpt lat="45.39348" lon="-0.17939">
        <ele>114.05</ele>
        <time>2021-06-30T12:15:05Z</time>
      </trkpt>
      <trkpt lat="45.38839" lon="-0.17968">
        <ele>129.92</ele>
        <time>2021-06-30T12:15:25Z</time>
      </trkpt>
      <trkpt lat="45.38585" lon="-0.18021">
        <ele>133.28</ele>
        <time>2021-06-30T12:15:35Z</time>
      </trkpt>
      <trkpt lat="45.38304" lon="-0.1814">
        <ele>131.84</ele>
        <time>2021-06-30T12:15:46Z</time>
      </trkpt>
      <trkpt lat="45.38051" lon="-0.18195">
        <ele>122.22</ele>
        <time>2021-06-30T12:15:56Z</time>
      </trkpt>
      <trkpt lat="45.37817" lon="-0.18182">
        <ele>120.78</ele>
        <time>2021-06-30T12:16:06Z</time>
      </trkpt>
      <trkpt lat="45.37482" lon="-0.1811">
        <ele>118.86</ele>
        <time>2021-06-30T12:16:19Z</time>
      </trkpt>
      <trkpt lat="45.37246" lon="-0.18111">
        <ele>117.9</ele>
        <time>2021-06-30T12:16:28Z</time>
      </trkpt>
      <trkpt lat="45.36991" lon="-0.18194">
        <ele>120.3</ele>
        <time>2021-06-30T12:16:38Z</time>
      </trkpt>
      <trkpt lat="45.36776" lon="-0.18334">
        <ele>121.26</ele>
        <time>2021-06-30T12:16:47Z</time>
      </trkpt>
      <trkpt lat="45.36566" lon="-0.18557">
        <ele>126.07</ele>
        <time>2021-06-30T12:16:57Z</time>
      </trkpt>
      <trkpt lat="45.36261" lon="-0.1892">
        <ele>118.86</ele>
        <time>2021-06-30T12:17:12Z</time>
      </trkpt>
      <trkpt lat="45.3603" lon="-0.19195">
        <ele>108.29</ele>
        <time>2021-06-30T12:17:24Z</time>
      </trkpt>
      <trkpt lat="45.35769" lon="-0.19478">
        <ele>100.11</ele>
        <time>2021-06-30T12:17:38Z</time>
      </trkpt>
      <trkpt lat="45.35437" lon="-0.1976">
        <ele>110.21</ele>
        <time>2021-06-30T12:17:53Z</time>
      </trkpt>
      <trkpt lat="45.35099" lon="-0.20036">
        <ele>119.82</ele>
        <time>2021-06-30T12:18:11Z</time>
      </trkpt>
      <trkpt lat="45.34909" lon="-0.20264">
        <ele>122.22</ele>
        <time>2021-06-30T12:18:22Z</time>
      </trkpt>
      <trkpt lat="45.34754" lon="-0.20482">
        <ele>122.22</ele>
        <time>2021-06-30T12:18:32Z</time>
      </trkpt>
      <trkpt lat="45.34526" lon="-0.20812">
        <ele>121.26</ele>
        <time>2021-06-30T12:18:45Z</time>
      </trkpt>
      <trkpt lat="45.34273" lon="-0.21182">
        <ele>123.67</ele>
        <time>2021-06-30T12:18:59Z</time>
      </trkpt>
      <trkpt lat="45.33987" lon="-0.21601">
        <ele>127.99</ele>
        <time>2021-06-30T12:19:15Z</time>
      </trkpt>
      <trkpt lat="45.33842" lon="-0.21813">
        <ele>125.11</ele>
        <time>2021-06-30T12:19:24Z</time>
      </trkpt>
      <trkpt lat="45.33729" lon="-0.21967">
        <ele>123.67</ele>
        <time>2021-06-30T12:19:33Z</time>
      </trkpt>
      <trkpt lat="45.33582" lon="-0.22122">
        <ele>125.11</ele>
        <time>2021-06-30T12:19:44Z</time>
      </trkpt>
      <trkpt lat="45.33444" lon="-0.22234">
        <ele>121.74</ele>
        <time>2021-06-30T12:19:56Z</time>
      </trkpt>
      <trkpt lat="45.33269" lon="-0.22341">
        <ele>120.3</ele>
        <time>2021-06-30T12:20:12Z</time>
      </trkpt>
      <trkpt lat="45.33204" lon="-0.22379">
        <ele>117.9</ele>
        <time>2021-06-30T12:20:19Z</time>
      </trkpt>
      <trkpt lat="45.33166" lon="-0.22402">
        <ele>120.3</ele>
        <time>2021-06-30T12:20:31Z</time>
      </trkpt>
      <trkpt lat="45.33103" lon="-0.22439">
        <ele>123.67</ele>
        <time>2021-06-30T12:20:45Z</time>
      </trkpt>
      <trkpt lat="45.32996" lon="-0.22503">
        <ele>125.11</ele>
        <time>2021-06-30T12:21:01Z</time>
      </trkpt>
      <trkpt lat="45.32925" lon="-0.22544">
        <ele>127.51</ele>
        <time>2021-06-30T12:21:10Z</time>
      </trkpt>
      <trkpt lat="45.32754" lon="-0.22647">
        <ele>130.88</ele>
        <time>2021-06-30T12:21:23Z</time>
      </trkpt>
      <trkpt lat="45.32454" lon="-0.22812">
        <ele>133.28</ele>
        <time>2021-06-30T12:21:42Z</time>
      </trkpt>
      <trkpt lat="45.32209" lon="-0.2289">
        <ele>127.51</ele>
        <time>2021-06-30T12:21:56Z</time>
      </trkpt>
      <trkpt lat="45.31799" lon="-0.22993">
        <ele>116.46</ele>
        <time>2021-06-30T12:22:18Z</time>
      </trkpt>
      <trkpt lat="45.31473" lon="-0.2311">
        <ele>110.21</ele>
        <time>2021-06-30T12:22:35Z</time>
      </trkpt>
      <trkpt lat="45.31172" lon="-0.23292">
        <ele>116.46</ele>
        <time>2021-06-30T12:22:51Z</time>
      </trkpt>
      <trkpt lat="45.30932" lon="-0.23449">
        <ele>115.01</ele>
        <time>2021-06-30T12:23:04Z</time>
      </trkpt>
      <trkpt lat="45.3069" lon="-0.23607">
        <ele>101.08</ele>
        <time>2021-06-30T12:23:19Z</time>
      </trkpt>
      <trkpt lat="45.30424" lon="-0.2377">
        <ele>94.35</ele>
        <time>2021-06-30T12:23:34Z</time>
      </trkpt>
      <trkpt lat="45.30192" lon="-0.23871">
        <ele>94.83</ele>
        <time>2021-06-30T12:23:46Z</time>
      </trkpt>
      <trkpt lat="45.29931" lon="-0.23935">
        <ele>102.04</ele>
        <time>2021-06-30T12:23:59Z</time>
      </trkpt>
      <trkpt lat="45.2957" lon="-0.24023">
        <ele>104.92</ele>
        <time>2021-06-30T12:24:18Z</time>
      </trkpt>
      <trkpt lat="45.29259" lon="-0.24095">
        <ele>101.08</ele>
        <time>2021-06-30T12:24:35Z</time>
      </trkpt>
      <trkpt lat="45.29081" lon="-0.24123">
        <ele>100.11</ele>
        <time>2021-06-30T12:24:46Z</time>
      </trkpt>
      <trkpt lat="45.28673" lon="-0.2419">
        <ele>98.19</ele>
        <time>2021-06-30T12:25:08Z</time>
      </trkpt>
      <trkpt lat="45.28464" lon="-0.24229">
        <ele>102.04</ele>
        <time>2021-06-30T12:25:19Z</time>
      </trkpt>
      <trkpt lat="45.28381" lon="-0.24254">
        <ele>104.44</ele>
        <time>2021-06-30T12:25:27Z</time>
      </trkpt>
      <trkpt lat="45.28225" lon="-0.24301">
        <ele>106.36</ele>
        <time>2021-06-30T12:25:36Z</time>
      </trkpt>
      <trkpt lat="45.27984" lon="-0.24374">
        <ele>110.21</ele>
        <time>2021-06-30T12:25:47Z</time>
      </trkpt>
      <trkpt lat="45.2764" lon="-0.24484">
        <ele>115.01</ele>
        <time>2021-06-30T12:26:01Z</time>
      </trkpt>
      <trkpt lat="45.27193" lon="-0.24623">
        <ele>115.98</ele>
        <time>2021-06-30T12:26:18Z</time>
      </trkpt>
      <trkpt lat="45.26708" lon="-0.24776">
        <ele>121.26</ele>
        <time>2021-06-30T12:26:36Z</time>
      </trkpt>
      <trkpt lat="45.2642" lon="-0.24896">
        <ele>124.63</ele>
        <time>2021-06-30T12:26:47Z</time>
      </trkpt>
      <trkpt lat="45.262" lon="-0.25071">
        <ele>125.59</ele>
        <time>2021-06-30T12:26:56Z</time>
      </trkpt>
      <trkpt lat="45.26035" lon="-0.25271">
        <ele>123.67</ele>
        <time>2021-06-30T12:27:04Z</time>
      </trkpt>
      <trkpt lat="45.25833" lon="-0.25605">
        <ele>106.84</ele>
        <time>2021-06-30T12:27:15Z</time>
      </trkpt>
      <trkpt lat="45.25657" lon="-0.2586">
        <ele>95.31</ele>
        <time>2021-06-30T12:27:24Z</time>
      </trkpt>
      <trkpt lat="45.25476" lon="-0.26014">
        <ele>90.02</ele>
        <time>2021-06-30T12:27:32Z</time>
      </trkpt>
      <trkpt lat="45.25126" lon="-0.26289">
        <ele>89.54</ele>
        <time>2021-06-30T12:27:47Z</time>
      </trkpt>
      <trkpt lat="45.24916" lon="-0.26522">
        <ele>89.54</ele>
        <time>2021-06-30T12:27:57Z</time>
      </trkpt>
      <trkpt lat="45.24689" lon="-0.2675">
        <ele>97.23</ele>
        <time>2021-06-30T12:28:07Z</time>
      </trkpt>
      <trkpt lat="45.24373" lon="-0.27042">
        <ele>116.94</ele>
        <time>2021-06-30T12:28:21Z</time>
      </trkpt>
      <trkpt lat="45.24003" lon="-0.27379">
        <ele>123.67</ele>
        <time>2021-06-30T12:28:38Z</time>
      </trkpt>
      <trkpt lat="45.23733" lon="-0.27594">
        <ele>115.98</ele>
        <time>2021-06-30T12:28:50Z</time>
      </trkpt>
      <trkpt lat="45.23457" lon="-0.27726">
        <ele>111.17</ele>
        <time>2021-06-30T12:29:01Z</time>
      </trkpt>
      <trkpt lat="45.23211" lon="-0.27876">
        <ele>111.17</ele>
        <time>2021-06-30T12:29:11Z</time>
      </trkpt>
      <trkpt lat="45.2288" lon="-0.28158">
        <ele>105.4</ele>
        <time>2021-06-30T12:29:25Z</time>
      </trkpt>
      <trkpt lat="45.22395" lon="-0.28544">
        <ele>84.73</ele>
        <time>2021-06-30T12:29:45Z</time>
      </trkpt>
      <trkpt lat="45.21989" lon="-0.28866">
        <ele>70.79</ele>
        <time>2021-06-30T12:30:01Z</time>
      </trkpt>
      <trkpt lat="45.2155" lon="-0.29212">
        <ele>60.22</ele>
        <time>2021-06-30T12:30:20Z</time>
      </trkpt>
      <trkpt lat="45.2117" lon="-0.29515">
        <ele>59.74</ele>
        <time>2021-06-30T12:30:36Z</time>
      </trkpt>
      <trkpt lat="45.20717" lon="-0.29878">
        <ele>58.78</ele>
        <time>2021-06-30T12:30:56Z</time>
      </trkpt>
      <trkpt lat="45.20366" lon="-0.30143">
        <ele>59.26</ele>
        <time>2021-06-30T12:31:11Z</time>
      </trkpt>
      <trkpt lat="45.20025" lon="-0.30411">
        <ele>57.34</ele>
        <time>2021-06-30T12:31:26Z</time>
      </trkpt>
      <trkpt lat="45.19754" lon="-0.30654">
        <ele>56.86</ele>
        <time>2021-06-30T12:31:38Z</time>
      </trkpt>
      <trkpt lat="45.19395" lon="-0.31042">
        <ele>58.3</ele>
        <time>2021-06-30T12:31:55Z</time>
      </trkpt>
      <trkpt lat="45.19045" lon="-0.31413">
        <ele>59.26</ele>
        <time>2021-06-30T12:32:12Z</time>
      </trkpt>
      <trkpt lat="45.18771" lon="-0.31701">
        <ele>56.37</ele>
        <time>2021-06-30T12:32:25Z</time>
      </trkpt>
      <trkpt lat="45.18433" lon="-0.32053">
        <ele>55.41</ele>
        <time>2021-06-30T12:32:41Z</time>
      </trkpt>
      <trkpt lat="45.18033" lon="-0.32471">
        <ele>54.93</ele>
        <time>2021-06-30T12:33:00Z</time>
      </trkpt>
      <trkpt lat="45.17658" lon="-0.32868">
        <ele>48.2</ele>
        <time>2021-06-30T12:33:18Z</time>
      </trkpt>
      <trkpt lat="45.17239" lon="-0.33309">
        <ele>50.13</ele>
        <time>2021-06-30T12:33:38Z</time>
      </trkpt>
      <trkpt lat="45.1681" lon="-0.33758">
        <ele>45.32</ele>
        <time>2021-06-30T12:33:58Z</time>
      </trkpt>
      <trkpt lat="45.1647" lon="-0.34115">
        <ele>43.4</ele>
        <time>2021-06-30T12:34:13Z</time>
      </trkpt>
      <trkpt lat="45.16221" lon="-0.34412">
        <ele>40.99</ele>
        <time>2021-06-30T12:34:25Z</time>
      </trkpt>
      <trkpt lat="45.16085" lon="-0.34638">
        <ele>47.72</ele>
        <time>2021-06-30T12:34:34Z</time>
      </trkpt>
      <trkpt lat="45.15782" lon="-0.3518">
        <ele>50.13</ele>
        <time>2021-06-30T12:34:52Z</time>
      </trkpt>
      <trkpt lat="45.15456" lon="-0.35761">
        <ele>57.82</ele>
        <time>2021-06-30T12:35:12Z</time>
      </trkpt>
      <trkpt lat="45.15303" lon="-0.35975">
        <ele>55.89</ele>
        <time>2021-06-30T12:35:21Z</time>
      </trkpt>
      <trkpt lat="45.15132" lon="-0.36144">
        <ele>53.01</ele>
        <time>2021-06-30T12:35:29Z</time>
      </trkpt>
      <trkpt lat="45.14891" lon="-0.36289">
        <ele>51.57</ele>
        <time>2021-06-30T12:35:39Z</time>
      </trkpt>
      <trkpt lat="45.14376" lon="-0.36566">
        <ele>57.34</ele>
        <time>2021-06-30T12:35:59Z</time>
      </trkpt>
      <trkpt lat="45.13849" lon="-0.36842">
        <ele>60.7</ele>
        <time>2021-06-30T12:36:21Z</time>
      </trkpt>
      <trkpt lat="45.13464" lon="-0.37046">
        <ele>52.05</ele>
        <time>2021-06-30T12:36:36Z</time>
      </trkpt>
      <trkpt lat="45.12938" lon="-0.37321">
        <ele>45.8</ele>
        <time>2021-06-30T12:36:55Z</time>
      </trkpt>
      <trkpt lat="45.12619" lon="-0.37465">
        <ele>40.99</ele>
        <time>2021-06-30T12:37:07Z</time>
      </trkpt>
      <trkpt lat="45.12289" lon="-0.37527">
        <ele>35.23</ele>
        <time>2021-06-30T12:37:20Z</time>
      </trkpt>
      <trkpt lat="45.1174" lon="-0.37624">
        <ele>29.46</ele>
        <time>2021-06-30T12:37:40Z</time>
      </trkpt>
      <trkpt lat="45.11403" lon="-0.37704">
        <ele>30.42</ele>
        <time>2021-06-30T12:37:52Z</time>
      </trkpt>
      <trkpt lat="45.1106" lon="-0.37878">
        <ele>32.34</ele>
        <time>2021-06-30T12:38:04Z</time>
      </trkpt>
      <trkpt lat="45.10693" lon="-0.38042">
        <ele>41.47</ele>
        <time>2021-06-30T12:38:19Z</time>
      </trkpt>
      <trkpt lat="45.10431" lon="-0.38078">
        <ele>47.72</ele>
        <time>2021-06-30T12:38:29Z</time>
      </trkpt>
      <trkpt lat="45.09917" lon="-0.38085">
        <ele>50.13</ele>
        <time>2021-06-30T12:38:48Z</time>
      </trkpt>
      <trkpt lat="45.09348" lon="-0.38106">
        <ele>61.66</ele>
        <time>2021-06-30T12:39:09Z</time>
      </trkpt>
      <trkpt lat="45.0902" lon="-0.38204">
        <ele>57.82</ele>
        <time>2021-06-30T12:39:20Z</time>
      </trkpt>
      <trkpt lat="45.08564" lon="-0.3836">
        <ele>61.18</ele>
        <time>2021-06-30T12:39:38Z</time>
      </trkpt>
      <trkpt lat="45.07988" lon="-0.38542">
        <ele>53.97</ele>
        <time>2021-06-30T12:39:59Z</time>
      </trkpt>
      <trkpt lat="45.07469" lon="-0.38714">
        <ele>54.45</ele>
        <time>2021-06-30T12:40:18Z</time>
      </trkpt>
      <trkpt lat="45.07271" lon="-0.38813">
        <ele>53.97</ele>
        <time>2021-06-30T12:40:26Z</time>
      </trkpt>
      <trkpt lat="45.06925" lon="-0.3908">
        <ele>53.97</ele>
        <time>2021-06-30T12:40:41Z</time>
      </trkpt>
      <trkpt lat="45.06474" lon="-0.39431">
        <ele>46.76</ele>
        <time>2021-06-30T12:41:01Z</time>
      </trkpt>
      <trkpt lat="45.06188" lon="-0.39673">
        <ele>45.32</ele>
        <time>2021-06-30T12:41:14Z</time>
      </trkpt>
      <trkpt lat="45.06023" lon="-0.39904">
        <ele>43.4</ele>
        <time>2021-06-30T12:41:23Z</time>
      </trkpt>
      <trkpt lat="45.05788" lon="-0.40234">
        <ele>39.55</ele>
        <time>2021-06-30T12:41:36Z</time>
      </trkpt>
      <trkpt lat="45.05623" lon="-0.40379">
        <ele>40.99</ele>
        <time>2021-06-30T12:41:44Z</time>
      </trkpt>
      <trkpt lat="45.05278" lon="-0.40616">
        <ele>43.4</ele>
        <time>2021-06-30T12:41:59Z</time>
      </trkpt>
      <trkpt lat="45.04807" lon="-0.40934">
        <ele>46.76</ele>
        <time>2021-06-30T12:42:18Z</time>
      </trkpt>
      <trkpt lat="45.04537" lon="-0.41093">
        <ele>47.24</ele>
        <time>2021-06-30T12:42:30Z</time>
      </trkpt>
      <trkpt lat="45.04254" lon="-0.41187">
        <ele>42.44</ele>
        <time>2021-06-30T12:42:41Z</time>
      </trkpt>
      <trkpt lat="45.03989" lon="-0.41341">
        <ele>40.99</ele>
        <time>2021-06-30T12:42:51Z</time>
      </trkpt>
      <trkpt lat="45.0379" lon="-0.41532">
        <ele>39.07</ele>
        <time>2021-06-30T12:43:00Z</time>
      </trkpt>
      <trkpt lat="45.03508" lon="-0.41809">
        <ele>43.4</ele>
        <time>2021-06-30T12:43:14Z</time>
      </trkpt>
      <trkpt lat="45.03319" lon="-0.41918">
        <ele>45.32</ele>
        <time>2021-06-30T12:43:22Z</time>
      </trkpt>
      <trkpt lat="45.02906" lon="-0.42147">
        <ele>46.28</ele>
        <time>2021-06-30T12:43:40Z</time>
      </trkpt>
      <trkpt lat="45.02639" lon="-0.42304">
        <ele>42.44</ele>
        <time>2021-06-30T12:43:52Z</time>
      </trkpt>
      <trkpt lat="45.02364" lon="-0.42447">
        <ele>42.92</ele>
        <time>2021-06-30T12:44:04Z</time>
      </trkpt>
      <trkpt lat="45.01922" lon="-0.4259">
        <ele>40.03</ele>
        <time>2021-06-30T12:44:21Z</time>
      </trkpt>
      <trkpt lat="45.01662" lon="-0.42691">
        <ele>39.07</ele>
        <time>2021-06-30T12:44:33Z</time>
      </trkpt>
      <trkpt lat="45.01472" lon="-0.4283">
        <ele>44.36</ele>
        <time>2021-06-30T12:44:42Z</time>
      </trkpt>
      <trkpt lat="45.01317" lon="-0.4294">
        <ele>46.76</ele>
        <time>2021-06-30T12:44:50Z</time>
      </trkpt>
      <trkpt lat="45.01182" lon="-0.4303">
        <ele>44.36</ele>
        <time>2021-06-30T12:44:58Z</time>
      </trkpt>
      <trkpt lat="45.01146" lon="-0.43038">
        <ele>41.47</ele>
        <time>2021-06-30T12:45:00Z</time>
      </trkpt>
      <trkpt lat="45.01128" lon="-0.43036">
        <ele>39.55</ele>
        <time>2021-06-30T12:45:01Z</time>
      </trkpt>
      <trkpt lat="45.01109" lon="-0.43034">
        <ele>39.55</ele>
        <time>2021-06-30T12:45:02Z</time>
      </trkpt>
      <trkpt lat="45.01092" lon="-0.43032">
        <ele>38.11</ele>
        <time>2021-06-30T12:45:03Z</time>
      </trkpt>
      <trkpt lat="45.01074" lon="-0.43026">
        <ele>37.15</ele>
        <time>2021-06-30T12:45:04Z</time>
      </trkpt>
      <trkpt lat="45.01057" lon="-0.43017">
        <ele>35.23</ele>
        <time>2021-06-30T12:45:05Z</time>
      </trkpt>
      <trkpt lat="45.01041" lon="-0.43005">
        <ele>34.74</ele>
        <time>2021-06-30T12:45:06Z</time>
      </trkpt>
      <trkpt lat="45.01025" lon="-0.42993">
        <ele>34.74</ele>
        <time>2021-06-30T12:45:07Z</time>
      </trkpt>
      <trkpt lat="45.01009" lon="-0.42981">
        <ele>35.23</ele>
        <time>2021-06-30T12:45:08Z</time>
      </trkpt>
      <trkpt lat="45.00995" lon="-0.42967">
        <ele>35.71</ele>
        <time>2021-06-30T12:45:09Z</time>
      </trkpt>
      <trkpt lat="45.00981" lon="-0.4295">
        <ele>36.19</ele>
        <time>2021-06-30T12:45:10Z</time>
      </trkpt>
      <trkpt lat="45.00875" lon="-0.4285">
        <ele>36.67</ele>
        <time>2021-06-30T12:45:16Z</time>
      </trkpt>
      <trkpt lat="45.00875" lon="-0.4285">
        <ele>37.15</ele>
        <time>2021-06-30T12:45:17Z</time>
      </trkpt>
      <trkpt lat="45.0068" lon="-0.42783">
        <ele>42.92</ele>
        <time>2021-06-30T12:45:27Z</time>
      </trkpt>
      <trkpt lat="45.00404" lon="-0.42735">
        <ele>45.8</ele>
        <time>2021-06-30T12:45:39Z</time>
      </trkpt>
      <trkpt lat="45.00069" lon="-0.42701">
        <ele>42.92</ele>
        <time>2021-06-30T12:45:52Z</time>
      </trkpt>
      <trkpt lat="44.99591" lon="-0.42698">
        <ele>33.78</ele>
        <time>2021-06-30T12:46:10Z</time>
      </trkpt>
      <trkpt lat="44.99053" lon="-0.42718">
        <ele>28.5</ele>
        <time>2021-06-30T12:46:30Z</time>
      </trkpt>
      <trkpt lat="44.98674" lon="-0.4276">
        <ele>24.65</ele>
        <time>2021-06-30T12:46:44Z</time>
      </trkpt>
      <trkpt lat="44.98279" lon="-0.42884">
        <ele>22.73</ele>
        <time>2021-06-30T12:46:59Z</time>
      </trkpt>
      <trkpt lat="44.97933" lon="-0.4307">
        <ele>22.25</ele>
        <time>2021-06-30T12:47:13Z</time>
      </trkpt>
      <trkpt lat="44.9758" lon="-0.43316">
        <ele>19.84</ele>
        <time>2021-06-30T12:47:28Z</time>
      </trkpt>
      <trkpt lat="44.97305" lon="-0.43462">
        <ele>20.32</ele>
        <time>2021-06-30T12:47:39Z</time>
      </trkpt>
      <trkpt lat="44.96968" lon="-0.43625">
        <ele>9.75</ele>
        <time>2021-06-30T12:47:52Z</time>
      </trkpt>
      <trkpt lat="44.96719" lon="-0.43815">
        <ele>2.06</ele>
        <time>2021-06-30T12:48:02Z</time>
      </trkpt>
      <trkpt lat="44.9633" lon="-0.44191">
        <ele>0.62</ele>
        <time>2021-06-30T12:48:19Z</time>
      </trkpt>
      <trkpt lat="44.95959" lon="-0.44602">
        <ele>-0.82</ele>
        <time>2021-06-30T12:48:35Z</time>
      </trkpt>
      <trkpt lat="44.95777" lon="-0.44898">
        <ele>1.1</ele>
        <time>2021-06-30T12:48:46Z</time>
      </trkpt>
      <trkpt lat="44.95578" lon="-0.45292">
        <ele>17.92</ele>
        <time>2021-06-30T12:48:59Z</time>
      </trkpt>
      <trkpt lat="44.95249" lon="-0.45954">
        <ele>12.63</ele>
        <time>2021-06-30T12:49:21Z</time>
      </trkpt>
      <trkpt lat="44.9508" lon="-0.46216">
        <ele>3.02</ele>
        <time>2021-06-30T12:49:30Z</time>
      </trkpt>
      <trkpt lat="44.94881" lon="-0.46414">
        <ele>2.54</ele>
        <time>2021-06-30T12:49:38Z</time>
      </trkpt>
      <trkpt lat="44.94677" lon="-0.46534">
        <ele>-0.34</ele>
        <time>2021-06-30T12:49:47Z</time>
      </trkpt>
      <trkpt lat="44.94405" lon="-0.46606">
        <ele>-3.71</ele>
        <time>2021-06-30T12:49:56Z</time>
      </trkpt>
      <trkpt lat="44.93916" lon="-0.46689">
        <ele>-2.75</ele>
        <time>2021-06-30T12:50:14Z</time>
      </trkpt>
      <trkpt lat="44.93571" lon="-0.46749">
        <ele>11.67</ele>
        <time>2021-06-30T12:50:28Z</time>
      </trkpt>
      <trkpt lat="44.9328" lon="-0.46812">
        <ele>18.4</ele>
        <time>2021-06-30T12:50:41Z</time>
      </trkpt>
      <trkpt lat="44.93065" lon="-0.46918">
        <ele>18.88</ele>
        <time>2021-06-30T12:50:51Z</time>
      </trkpt>
      <trkpt lat="44.92774" lon="-0.4711">
        <ele>18.4</ele>
        <time>2021-06-30T12:51:05Z</time>
      </trkpt>
      <trkpt lat="44.92303" lon="-0.47418">
        <ele>19.36</ele>
        <time>2021-06-30T12:51:26Z</time>
      </trkpt>
      <trkpt lat="44.92017" lon="-0.47578">
        <ele>11.67</ele>
        <time>2021-06-30T12:51:40Z</time>
      </trkpt>
      <trkpt lat="44.91696" lon="-0.47757">
        <ele>0.62</ele>
        <time>2021-06-30T12:51:55Z</time>
      </trkpt>
      <trkpt lat="44.91526" lon="-0.47905">
        <ele>4.94</ele>
        <time>2021-06-30T12:52:03Z</time>
      </trkpt>
      <trkpt lat="44.91367" lon="-0.48135">
        <ele>8.79</ele>
        <time>2021-06-30T12:52:12Z</time>
      </trkpt>
      <trkpt lat="44.91122" lon="-0.48624">
        <ele>13.6</ele>
        <time>2021-06-30T12:52:29Z</time>
      </trkpt>
      <trkpt lat="44.90939" lon="-0.48935">
        <ele>9.27</ele>
        <time>2021-06-30T12:52:40Z</time>
      </trkpt>
      <trkpt lat="44.90758" lon="-0.49118">
        <ele>10.71</ele>
        <time>2021-06-30T12:52:49Z</time>
      </trkpt>
      <trkpt lat="44.90528" lon="-0.49245">
        <ele>8.31</ele>
        <time>2021-06-30T12:52:58Z</time>
      </trkpt>
      <trkpt lat="44.90151" lon="-0.49399">
        <ele>9.75</ele>
        <time>2021-06-30T12:53:16Z</time>
      </trkpt>
      <trkpt lat="44.89741" lon="-0.49578">
        <ele>14.56</ele>
        <time>2021-06-30T12:53:34Z</time>
      </trkpt>
      <trkpt lat="44.89547" lon="-0.49728">
        <ele>12.15</ele>
        <time>2021-06-30T12:53:45Z</time>
      </trkpt>
      <trkpt lat="44.89292" lon="-0.50008">
        <ele>14.56</ele>
        <time>2021-06-30T12:54:00Z</time>
      </trkpt>
      <trkpt lat="44.89036" lon="-0.5029">
        <ele>15.04</ele>
        <time>2021-06-30T12:54:16Z</time>
      </trkpt>
      <trkpt lat="44.88865" lon="-0.50465">
        <ele>17.44</ele>
        <time>2021-06-30T12:54:28Z</time>
      </trkpt>
      <trkpt lat="44.88696" lon="-0.50628">
        <ele>17.92</ele>
        <time>2021-06-30T12:54:40Z</time>
      </trkpt>
      <trkpt lat="44.88585" lon="-0.508">
        <ele>20.81</ele>
        <time>2021-06-30T12:54:50Z</time>
      </trkpt>
      <trkpt lat="44.88533" lon="-0.50968">
        <ele>23.21</ele>
        <time>2021-06-30T12:54:57Z</time>
      </trkpt>
      <trkpt lat="44.88532" lon="-0.51099">
        <ele>34.26</ele>
        <time>2021-06-30T12:55:04Z</time>
      </trkpt>
      <trkpt lat="44.88535" lon="-0.51136">
        <ele>36.19</ele>
        <time>2021-06-30T12:55:06Z</time>
      </trkpt>
      <trkpt lat="44.88535" lon="-0.51154">
        <ele>36.19</ele>
        <time>2021-06-30T12:55:07Z</time>
      </trkpt>
      <trkpt lat="44.88534" lon="-0.5117">
        <ele>36.19</ele>
        <time>2021-06-30T12:55:08Z</time>
      </trkpt>
      <trkpt lat="44.88531" lon="-0.51185">
        <ele>35.71</ele>
        <time>2021-06-30T12:55:09Z</time>
      </trkpt>
      <trkpt lat="44.88527" lon="-0.512">
        <ele>36.67</ele>
        <time>2021-06-30T12:55:10Z</time>
      </trkpt>
      <trkpt lat="44.88523" lon="-0.51214">
        <ele>37.63</ele>
        <time>2021-06-30T12:55:11Z</time>
      </trkpt>
      <trkpt lat="44.88519" lon="-0.51229">
        <ele>38.59</ele>
        <time>2021-06-30T12:55:12Z</time>
      </trkpt>
      <trkpt lat="44.88514" lon="-0.51244">
        <ele>39.55</ele>
        <time>2021-06-30T12:55:13Z</time>
      </trkpt>
      <trkpt lat="44.88505" lon="-0.51256">
        <ele>40.03</ele>
        <time>2021-06-30T12:55:14Z</time>
      </trkpt>
      <trkpt lat="44.88495" lon="-0.51269">
        <ele>41.47</ele>
        <time>2021-06-30T12:55:15Z</time>
      </trkpt>
      <trkpt lat="44.88485" lon="-0.51279">
        <ele>42.44</ele>
        <time>2021-06-30T12:55:16Z</time>
      </trkpt>
      <trkpt lat="44.88475" lon="-0.51288">
        <ele>43.4</ele>
        <time>2021-06-30T12:55:17Z</time>
      </trkpt>
      <trkpt lat="44.88463" lon="-0.51294">
        <ele>42.44</ele>
        <time>2021-06-30T12:55:18Z</time>
      </trkpt>
      <trkpt lat="44.88452" lon="-0.513">
        <ele>41.95</ele>
        <time>2021-06-30T12:55:19Z</time>
      </trkpt>
      <trkpt lat="44.88439" lon="-0.51302">
        <ele>40.51</ele>
        <time>2021-06-30T12:55:20Z</time>
      </trkpt>
      <trkpt lat="44.88426" lon="-0.51304">
        <ele>39.55</ele>
        <time>2021-06-30T12:55:21Z</time>
      </trkpt>
      <trkpt lat="44.88402" lon="-0.51301">
        <ele>38.59</ele>
        <time>2021-06-30T12:55:22Z</time>
      </trkpt>
      <trkpt lat="44.88389" lon="-0.51297">
        <ele>38.59</ele>
        <time>2021-06-30T12:55:23Z</time>
      </trkpt>
      <trkpt lat="44.88377" lon="-0.51293">
        <ele>38.11</ele>
        <time>2021-06-30T12:55:24Z</time>
      </trkpt>
      <trkpt lat="44.88377" lon="-0.51293">
        <ele>37.63</ele>
        <time>2021-06-30T12:55:25Z</time>
      </trkpt>
      <trkpt lat="44.88364" lon="-0.51283">
        <ele>37.15</ele>
        <time>2021-06-30T12:55:26Z</time>
      </trkpt>
      <trkpt lat="44.88229" lon="-0.51179">
        <ele>29.46</ele>
        <time>2021-06-30T12:55:35Z</time>
      </trkpt>
      <trkpt lat="44.88017" lon="-0.51048">
        <ele>27.05</ele>
        <time>2021-06-30T12:55:47Z</time>
      </trkpt>
      <trkpt lat="44.87709" lon="-0.50881">
        <ele>34.26</ele>
        <time>2021-06-30T12:56:04Z</time>
      </trkpt>
      <trkpt lat="44.87525" lon="-0.50779">
        <ele>34.74</ele>
        <time>2021-06-30T12:56:17Z</time>
      </trkpt>
      <trkpt lat="44.87307" lon="-0.50659">
        <ele>34.74</ele>
        <time>2021-06-30T12:56:31Z</time>
      </trkpt>
      <trkpt lat="44.87097" lon="-0.50555">
        <ele>34.26</ele>
        <time>2021-06-30T12:56:42Z</time>
      </trkpt>
      <trkpt lat="44.86875" lon="-0.50472">
        <ele>34.74</ele>
        <time>2021-06-30T12:56:54Z</time>
      </trkpt>
      <trkpt lat="44.86663" lon="-0.50424">
        <ele>39.07</ele>
        <time>2021-06-30T12:57:06Z</time>
      </trkpt>
      <trkpt lat="44.8642" lon="-0.50398">
        <ele>42.44</ele>
        <time>2021-06-30T12:57:19Z</time>
      </trkpt>
      <trkpt lat="44.86123" lon="-0.50413">
        <ele>46.28</ele>
        <time>2021-06-30T12:57:33Z</time>
      </trkpt>
      <trkpt lat="44.85822" lon="-0.50479">
        <ele>49.65</ele>
        <time>2021-06-30T12:57:47Z</time>
      </trkpt>
      <trkpt lat="44.85577" lon="-0.50529">
        <ele>50.61</ele>
        <time>2021-06-30T12:57:59Z</time>
      </trkpt>
      <trkpt lat="44.85364" lon="-0.50528">
        <ele>51.09</ele>
        <time>2021-06-30T12:58:09Z</time>
      </trkpt>
      <trkpt lat="44.85161" lon="-0.50471">
        <ele>52.05</ele>
        <time>2021-06-30T12:58:19Z</time>
      </trkpt>
      <trkpt lat="44.84906" lon="-0.50369">
        <ele>55.89</ele>
        <time>2021-06-30T12:58:34Z</time>
      </trkpt>
      <trkpt lat="44.84683" lon="-0.50279">
        <ele>57.34</ele>
        <time>2021-06-30T12:58:47Z</time>
      </trkpt>
      <trkpt lat="44.84565" lon="-0.5023">
        <ele>58.3</ele>
        <time>2021-06-30T12:58:56Z</time>
      </trkpt>
      <trkpt lat="44.84356" lon="-0.50172">
        <ele>62.14</ele>
        <time>2021-06-30T12:59:10Z</time>
      </trkpt>
      <trkpt lat="44.84184" lon="-0.50169">
        <ele>64.07</ele>
        <time>2021-06-30T12:59:20Z</time>
      </trkpt>
      <trkpt lat="44.84027" lon="-0.50171">
        <ele>64.55</ele>
        <time>2021-06-30T12:59:31Z</time>
      </trkpt>
      <trkpt lat="44.83887" lon="-0.5014">
        <ele>62.14</ele>
        <time>2021-06-30T12:59:41Z</time>
      </trkpt>
      <trkpt lat="44.83762" lon="-0.50085">
        <ele>60.22</ele>
        <time>2021-06-30T12:59:51Z</time>
      </trkpt>
      <trkpt lat="44.83628" lon="-0.50024">
        <ele>53.49</ele>
        <time>2021-06-30T13:00:00Z</time>
      </trkpt>
      <trkpt lat="44.83454" lon="-0.50005">
        <ele>46.28</ele>
        <time>2021-06-30T13:00:09Z</time>
      </trkpt>
      <trkpt lat="44.83328" lon="-0.50034">
        <ele>40.03</ele>
        <time>2021-06-30T13:00:17Z</time>
      </trkpt>
      <trkpt lat="44.83276" lon="-0.50055">
        <ele>37.15</ele>
        <time>2021-06-30T13:00:24Z</time>
      </trkpt>
      <trkpt lat="44.83159" lon="-0.50109">
        <ele>30.42</ele>
        <time>2021-06-30T13:00:34Z</time>
      </trkpt>
      <trkpt lat="44.82978" lon="-0.50228">
        <ele>21.29</ele>
        <time>2021-06-30T13:00:48Z</time>
      </trkpt>
      <trkpt lat="44.82868" lon="-0.50365">
        <ele>17.44</ele>
        <time>2021-06-30T13:00:57Z</time>
      </trkpt>
      <trkpt lat="44.82794" lon="-0.5054">
        <ele>11.67</ele>
        <time>2021-06-30T13:01:06Z</time>
      </trkpt>
      <trkpt lat="44.82703" lon="-0.5078">
        <ele>10.23</ele>
        <time>2021-06-30T13:01:18Z</time>
      </trkpt>
      <trkpt lat="44.82576" lon="-0.50977">
        <ele>10.23</ele>
        <time>2021-06-30T13:01:28Z</time>
      </trkpt>
      <trkpt lat="44.82418" lon="-0.51142">
        <ele>8.31</ele>
        <time>2021-06-30T13:01:39Z</time>
      </trkpt>
      <trkpt lat="44.82279" lon="-0.51351">
        <ele>1.58</ele>
        <time>2021-06-30T13:01:49Z</time>
      </trkpt>
      <trkpt lat="44.82208" lon="-0.51515">
        <ele>-4.67</ele>
        <time>2021-06-30T13:01:58Z</time>
      </trkpt>
      <trkpt lat="44.82135" lon="-0.51751">
        <ele>-4.19</ele>
        <time>2021-06-30T13:02:08Z</time>
      </trkpt>
      <trkpt lat="44.82051" lon="-0.51901">
        <ele>-2.27</ele>
        <time>2021-06-30T13:02:18Z</time>
      </trkpt>
      <trkpt lat="44.81925" lon="-0.52021">
        <ele>-2.75</ele>
        <time>2021-06-30T13:02:28Z</time>
      </trkpt>
      <trkpt lat="44.81787" lon="-0.52084">
        <ele>-3.23</ele>
        <time>2021-06-30T13:02:38Z</time>
      </trkpt>
      <trkpt lat="44.81617" lon="-0.52088">
        <ele>-6.11</ele>
        <time>2021-06-30T13:02:49Z</time>
      </trkpt>
      <trkpt lat="44.81418" lon="-0.5208">
        <ele>-3.71</ele>
        <time>2021-06-30T13:03:03Z</time>
      </trkpt>
      <trkpt lat="44.81292" lon="-0.52119">
        <ele>-2.27</ele>
        <time>2021-06-30T13:03:14Z</time>
      </trkpt>
      <trkpt lat="44.81231" lon="-0.52154">
        <ele>-2.75</ele>
        <time>2021-06-30T13:03:22Z</time>
      </trkpt>
      <trkpt lat="44.81177" lon="-0.52191">
        <ele>-3.71</ele>
        <time>2021-06-30T13:03:34Z</time>
      </trkpt>
      <trkpt lat="44.81161" lon="-0.52204">
        <ele>-4.19</ele>
        <time>2021-06-30T13:03:46Z</time>
      </trkpt>
      <trkpt lat="44.81158" lon="-0.52207">
        <ele>-4.19</ele>
        <time>2021-06-30T13:03:48Z</time>
      </trkpt>
      <trkpt lat="44.81116" lon="-0.52248">
        <ele>-5.63</ele>
        <time>2021-06-30T13:04:00Z</time>
      </trkpt>
      <trkpt lat="44.81065" lon="-0.52308">
        <ele>-6.11</ele>
        <time>2021-06-30T13:04:13Z</time>
      </trkpt>
      <trkpt lat="44.81026" lon="-0.52363">
        <ele>-3.71</ele>
        <time>2021-06-30T13:04:22Z</time>
      </trkpt>
      <trkpt lat="44.80971" lon="-0.52446">
        <ele>-2.27</ele>
        <time>2021-06-30T13:04:33Z</time>
      </trkpt>
      <trkpt lat="44.80963" lon="-0.52455">
        <ele>-0.82</ele>
        <time>2021-06-30T13:04:41Z</time>
      </trkpt>
      <trkpt lat="44.80923" lon="-0.52517">
        <ele>0.14</ele>
        <time>2021-06-30T13:04:52Z</time>
      </trkpt>
      <trkpt lat="44.80863" lon="-0.52607">
        <ele>1.58</ele>
        <time>2021-06-30T13:05:04Z</time>
      </trkpt>
      <trkpt lat="44.80773" lon="-0.52742">
        <ele>3.98</ele>
        <time>2021-06-30T13:05:16Z</time>
      </trkpt>
      <trkpt lat="44.80678" lon="-0.52885">
        <ele>7.83</ele>
        <time>2021-06-30T13:05:31Z</time>
      </trkpt>
      <trkpt lat="44.80553" lon="-0.53071">
        <ele>5.91</ele>
        <time>2021-06-30T13:05:48Z</time>
      </trkpt>
      <trkpt lat="44.8046" lon="-0.53193">
        <ele>3.98</ele>
        <time>2021-06-30T13:05:58Z</time>
      </trkpt>
      <trkpt lat="44.80314" lon="-0.53304">
        <ele>-0.34</ele>
        <time>2021-06-30T13:06:11Z</time>
      </trkpt>
      <trkpt lat="44.80217" lon="-0.53373">
        <ele>0.62</ele>
        <time>2021-06-30T13:06:21Z</time>
      </trkpt>
      <trkpt lat="44.80081" lon="-0.53494">
        <ele>3.02</ele>
        <time>2021-06-30T13:06:33Z</time>
      </trkpt>
      <trkpt lat="44.79887" lon="-0.53663">
        <ele>2.06</ele>
        <time>2021-06-30T13:06:47Z</time>
      </trkpt>
      <trkpt lat="44.79747" lon="-0.5377">
        <ele>3.02</ele>
        <time>2021-06-30T13:06:58Z</time>
      </trkpt>
      <trkpt lat="44.79594" lon="-0.53873">
        <ele>2.54</ele>
        <time>2021-06-30T13:07:08Z</time>
      </trkpt>
      <trkpt lat="44.79326" lon="-0.53989">
        <ele>3.02</ele>
        <time>2021-06-30T13:07:23Z</time>
      </trkpt>
      <trkpt lat="44.79096" lon="-0.54054">
        <ele>3.98</ele>
        <time>2021-06-30T13:07:36Z</time>
      </trkpt>
      <trkpt lat="44.78794" lon="-0.54122">
        <ele>4.94</ele>
        <time>2021-06-30T13:07:53Z</time>
      </trkpt>
      <trkpt lat="44.78502" lon="-0.54188">
        <ele>3.98</ele>
        <time>2021-06-30T13:08:08Z</time>
      </trkpt>
      <trkpt lat="44.78311" lon="-0.54272">
        <ele>5.91</ele>
        <time>2021-06-30T13:08:17Z</time>
      </trkpt>
      <trkpt lat="44.78181" lon="-0.54391">
        <ele>10.71</ele>
        <time>2021-06-30T13:08:24Z</time>
      </trkpt>
      <trkpt lat="44.78071" lon="-0.54576">
        <ele>10.23</ele>
        <time>2021-06-30T13:08:32Z</time>
      </trkpt>
      <trkpt lat="44.78006" lon="-0.54791">
        <ele>9.75</ele>
        <time>2021-06-30T13:08:40Z</time>
      </trkpt>
      <trkpt lat="44.77896" lon="-0.55289">
        <ele>11.19</ele>
        <time>2021-06-30T13:08:58Z</time>
      </trkpt>
      <trkpt lat="44.77789" lon="-0.55824">
        <ele>9.75</ele>
        <time>2021-06-30T13:09:17Z</time>
      </trkpt>
      <trkpt lat="44.7777" lon="-0.56113">
        <ele>9.75</ele>
        <time>2021-06-30T13:09:27Z</time>
      </trkpt>
      <trkpt lat="44.77796" lon="-0.56388">
        <ele>8.79</ele>
        <time>2021-06-30T13:09:37Z</time>
      </trkpt>
      <trkpt lat="44.77883" lon="-0.56893">
        <ele>7.83</ele>
        <time>2021-06-30T13:09:55Z</time>
      </trkpt>
      <trkpt lat="44.77968" lon="-0.57362">
        <ele>5.91</ele>
        <time>2021-06-30T13:10:12Z</time>
      </trkpt>
      <trkpt lat="44.78091" lon="-0.57931">
        <ele>5.42</ele>
        <time>2021-06-30T13:10:32Z</time>
      </trkpt>
      <trkpt lat="44.78161" lon="-0.58212">
        <ele>4.46</ele>
        <time>2021-06-30T13:10:43Z</time>
      </trkpt>
      <trkpt lat="44.7826" lon="-0.58551">
        <ele>4.46</ele>
        <time>2021-06-30T13:10:57Z</time>
      </trkpt>
      <trkpt lat="44.78376" lon="-0.58895">
        <ele>6.39</ele>
        <time>2021-06-30T13:11:11Z</time>
      </trkpt>
      <trkpt lat="44.78527" lon="-0.59292">
        <ele>14.08</ele>
        <time>2021-06-30T13:11:26Z</time>
      </trkpt>
      <trkpt lat="44.78663" lon="-0.59622">
        <ele>16</ele>
        <time>2021-06-30T13:11:40Z</time>
      </trkpt>
      <trkpt lat="44.78836" lon="-0.60041">
        <ele>15.52</ele>
        <time>2021-06-30T13:11:57Z</time>
      </trkpt>
      <trkpt lat="44.78943" lon="-0.60376">
        <ele>13.12</ele>
        <time>2021-06-30T13:12:10Z</time>
      </trkpt>
      <trkpt lat="44.79" lon="-0.60708">
        <ele>14.56</ele>
        <time>2021-06-30T13:12:22Z</time>
      </trkpt>
      <trkpt lat="44.79014" lon="-0.61063">
        <ele>17.92</ele>
        <time>2021-06-30T13:12:34Z</time>
      </trkpt>
      <trkpt lat="44.78984" lon="-0.61483">
        <ele>21.29</ele>
        <time>2021-06-30T13:12:48Z</time>
      </trkpt>
      <trkpt lat="44.78939" lon="-0.61952">
        <ele>25.61</ele>
        <time>2021-06-30T13:13:04Z</time>
      </trkpt>
      <trkpt lat="44.78911" lon="-0.62273">
        <ele>27.53</ele>
        <time>2021-06-30T13:13:16Z</time>
      </trkpt>
      <trkpt lat="44.78857" lon="-0.62858">
        <ele>31.38</ele>
        <time>2021-06-30T13:13:37Z</time>
      </trkpt>
      <trkpt lat="44.78802" lon="-0.63443">
        <ele>34.74</ele>
        <time>2021-06-30T13:13:57Z</time>
      </trkpt>
      <trkpt lat="44.78785" lon="-0.6385">
        <ele>36.67</ele>
        <time>2021-06-30T13:14:11Z</time>
      </trkpt>
      <trkpt lat="44.78822" lon="-0.64126">
        <ele>36.67</ele>
        <time>2021-06-30T13:14:21Z</time>
      </trkpt>
      <trkpt lat="44.78901" lon="-0.64389">
        <ele>37.15</ele>
        <time>2021-06-30T13:14:31Z</time>
      </trkpt>
      <trkpt lat="44.79022" lon="-0.64612">
        <ele>41.95</ele>
        <time>2021-06-30T13:14:41Z</time>
      </trkpt>
      <trkpt lat="44.79191" lon="-0.64815">
        <ele>39.07</ele>
        <time>2021-06-30T13:14:51Z</time>
      </trkpt>
      <trkpt lat="44.7943" lon="-0.65012">
        <ele>41.95</ele>
        <time>2021-06-30T13:15:05Z</time>
      </trkpt>
      <trkpt lat="44.79709" lon="-0.65231">
        <ele>40.03</ele>
        <time>2021-06-30T13:15:20Z</time>
      </trkpt>
      <trkpt lat="44.79946" lon="-0.65449">
        <ele>40.03</ele>
        <time>2021-06-30T13:15:33Z</time>
      </trkpt>
      <trkpt lat="44.80102" lon="-0.65671">
        <ele>38.59</ele>
        <time>2021-06-30T13:15:43Z</time>
      </trkpt>
      <trkpt lat="44.80221" lon="-0.65871">
        <ele>40.51</ele>
        <time>2021-06-30T13:15:52Z</time>
      </trkpt>
      <trkpt lat="44.80383" lon="-0.66147">
        <ele>40.03</ele>
        <time>2021-06-30T13:16:04Z</time>
      </trkpt>
      <trkpt lat="44.80572" lon="-0.66462">
        <ele>38.59</ele>
        <time>2021-06-30T13:16:18Z</time>
      </trkpt>
      <trkpt lat="44.80784" lon="-0.66808">
        <ele>37.63</ele>
        <time>2021-06-30T13:16:33Z</time>
      </trkpt>
      <trkpt lat="44.80946" lon="-0.6701">
        <ele>37.63</ele>
        <time>2021-06-30T13:16:43Z</time>
      </trkpt>
      <trkpt lat="44.81142" lon="-0.67153">
        <ele>33.3</ele>
        <time>2021-06-30T13:16:53Z</time>
      </trkpt>
      <trkpt lat="44.81349" lon="-0.67226">
        <ele>31.86</ele>
        <time>2021-06-30T13:17:03Z</time>
      </trkpt>
      <trkpt lat="44.81645" lon="-0.67288">
        <ele>35.71</ele>
        <time>2021-06-30T13:17:17Z</time>
      </trkpt>
      <trkpt lat="44.81917" lon="-0.67346">
        <ele>33.3</ele>
        <time>2021-06-30T13:17:30Z</time>
      </trkpt>
      <trkpt lat="44.82319" lon="-0.67431">
        <ele>35.23</ele>
        <time>2021-06-30T13:17:47Z</time>
      </trkpt>
      <trkpt lat="44.82726" lon="-0.67516">
        <ele>39.07</ele>
        <time>2021-06-30T13:18:05Z</time>
      </trkpt>
      <trkpt lat="44.82976" lon="-0.6757">
        <ele>39.55</ele>
        <time>2021-06-30T13:18:16Z</time>
      </trkpt>
      <trkpt lat="44.83345" lon="-0.67639">
        <ele>42.44</ele>
        <time>2021-06-30T13:18:32Z</time>
      </trkpt>
      <trkpt lat="44.83598" lon="-0.67633">
        <ele>44.36</ele>
        <time>2021-06-30T13:18:43Z</time>
      </trkpt>
      <trkpt lat="44.8385" lon="-0.67559">
        <ele>45.32</ele>
        <time>2021-06-30T13:18:54Z</time>
      </trkpt>
      <trkpt lat="44.84106" lon="-0.67406">
        <ele>44.36</ele>
        <time>2021-06-30T13:19:06Z</time>
      </trkpt>
      <trkpt lat="44.84489" lon="-0.67129">
        <ele>43.4</ele>
        <time>2021-06-30T13:19:25Z</time>
      </trkpt>
      <trkpt lat="44.84776" lon="-0.66922">
        <ele>42.92</ele>
        <time>2021-06-30T13:19:40Z</time>
      </trkpt>
      <trkpt lat="44.85018" lon="-0.66749">
        <ele>42.44</ele>
        <time>2021-06-30T13:19:55Z</time>
      </trkpt>
      <trkpt lat="44.85317" lon="-0.66532">
        <ele>39.55</ele>
        <time>2021-06-30T13:20:11Z</time>
      </trkpt>
      <trkpt lat="44.85588" lon="-0.66335">
        <ele>38.11</ele>
        <time>2021-06-30T13:20:26Z</time>
      </trkpt>
      <trkpt lat="44.85716" lon="-0.66236">
        <ele>37.63</ele>
        <time>2021-06-30T13:20:34Z</time>
      </trkpt>
      <trkpt lat="44.85835" lon="-0.66139">
        <ele>38.11</ele>
        <time>2021-06-30T13:20:45Z</time>
      </trkpt>
      <trkpt lat="44.85976" lon="-0.66001">
        <ele>37.63</ele>
        <time>2021-06-30T13:20:58Z</time>
      </trkpt>
      <trkpt lat="44.86104" lon="-0.6586">
        <ele>35.71</ele>
        <time>2021-06-30T13:21:09Z</time>
      </trkpt>
      <trkpt lat="44.86284" lon="-0.65631">
        <ele>34.26</ele>
        <time>2021-06-30T13:21:24Z</time>
      </trkpt>
      <trkpt lat="44.86417" lon="-0.65431">
        <ele>31.38</ele>
        <time>2021-06-30T13:21:37Z</time>
      </trkpt>
      <trkpt lat="44.86465" lon="-0.65318">
        <ele>28.98</ele>
        <time>2021-06-30T13:21:45Z</time>
      </trkpt>
      <trkpt lat="44.86474" lon="-0.65265">
        <ele>28.98</ele>
        <time>2021-06-30T13:21:48Z</time>
      </trkpt>
      <trkpt lat="44.86474" lon="-0.65246">
        <ele>29.46</ele>
        <time>2021-06-30T13:21:49Z</time>
      </trkpt>
      <trkpt lat="44.86475" lon="-0.65228">
        <ele>30.9</ele>
        <time>2021-06-30T13:21:50Z</time>
      </trkpt>
      <trkpt lat="44.86473" lon="-0.65161">
        <ele>33.3</ele>
        <time>2021-06-30T13:21:54Z</time>
      </trkpt>
      <trkpt lat="44.86476" lon="-0.65148">
        <ele>32.82</ele>
        <time>2021-06-30T13:21:55Z</time>
      </trkpt>
      <trkpt lat="44.86479" lon="-0.65135">
        <ele>32.82</ele>
        <time>2021-06-30T13:21:56Z</time>
      </trkpt>
      <trkpt lat="44.86483" lon="-0.65122">
        <ele>32.82</ele>
        <time>2021-06-30T13:21:57Z</time>
      </trkpt>
      <trkpt lat="44.86493" lon="-0.651">
        <ele>33.3</ele>
        <time>2021-06-30T13:21:58Z</time>
      </trkpt>
      <trkpt lat="44.86493" lon="-0.651">
        <ele>33.78</ele>
        <time>2021-06-30T13:21:59Z</time>
      </trkpt>
      <trkpt lat="44.865" lon="-0.65094">
        <ele>33.78</ele>
        <time>2021-06-30T13:22:00Z</time>
      </trkpt>
      <trkpt lat="44.8651" lon="-0.65088">
        <ele>34.26</ele>
        <time>2021-06-30T13:22:01Z</time>
      </trkpt>
      <trkpt lat="44.86519" lon="-0.65083">
        <ele>33.78</ele>
        <time>2021-06-30T13:22:02Z</time>
      </trkpt>
      <trkpt lat="44.86539" lon="-0.65089">
        <ele>33.78</ele>
        <time>2021-06-30T13:22:03Z</time>
      </trkpt>
      <trkpt lat="44.86539" lon="-0.65089">
        <ele>33.78</ele>
        <time>2021-06-30T13:22:04Z</time>
      </trkpt>
      <trkpt lat="44.86548" lon="-0.65094">
        <ele>33.3</ele>
        <time>2021-06-30T13:22:05Z</time>
      </trkpt>
      <trkpt lat="44.86559" lon="-0.65104">
        <ele>33.3</ele>
        <time>2021-06-30T13:22:06Z</time>
      </trkpt>
      <trkpt lat="44.86636" lon="-0.65188">
        <ele>33.3</ele>
        <time>2021-06-30T13:22:15Z</time>
      </trkpt>
      <trkpt lat="44.86753" lon="-0.65322">
        <ele>29.94</ele>
        <time>2021-06-30T13:22:27Z</time>
      </trkpt>
      <trkpt lat="44.86918" lon="-0.655">
        <ele>25.13</ele>
        <time>2021-06-30T13:22:40Z</time>
      </trkpt>
      <trkpt lat="44.87149" lon="-0.65754">
        <ele>23.69</ele>
        <time>2021-06-30T13:22:56Z</time>
      </trkpt>
      <trkpt lat="44.87288" lon="-0.65864">
        <ele>23.21</ele>
        <time>2021-06-30T13:23:07Z</time>
      </trkpt>
      <trkpt lat="44.87431" lon="-0.6595">
        <ele>21.29</ele>
        <time>2021-06-30T13:23:19Z</time>
      </trkpt>
      <trkpt lat="44.87488" lon="-0.65984">
        <ele>20.32</ele>
        <time>2021-06-30T13:23:25Z</time>
      </trkpt>
      <trkpt lat="44.87495" lon="-0.65985">
        <ele>20.81</ele>
        <time>2021-06-30T13:23:26Z</time>
      </trkpt>
      <trkpt lat="44.87506" lon="-0.65983">
        <ele>21.29</ele>
        <time>2021-06-30T13:23:27Z</time>
      </trkpt>
      <trkpt lat="44.87506" lon="-0.65983">
        <ele>21.77</ele>
        <time>2021-06-30T13:23:28Z</time>
      </trkpt>
      <trkpt lat="44.87519" lon="-0.65978">
        <ele>21.77</ele>
        <time>2021-06-30T13:23:29Z</time>
      </trkpt>
      <trkpt lat="44.87525" lon="-0.65981">
        <ele>21.77</ele>
        <time>2021-06-30T13:23:30Z</time>
      </trkpt>
      <trkpt lat="44.87532" lon="-0.65984">
        <ele>20.81</ele>
        <time>2021-06-30T13:23:31Z</time>
      </trkpt>
      <trkpt lat="44.87536" lon="-0.65989">
        <ele>20.81</ele>
        <time>2021-06-30T13:23:32Z</time>
      </trkpt>
      <trkpt lat="44.8754" lon="-0.65999">
        <ele>20.32</ele>
        <time>2021-06-30T13:23:33Z</time>
      </trkpt>
      <trkpt lat="44.8754" lon="-0.65999">
        <ele>20.32</ele>
        <time>2021-06-30T13:23:34Z</time>
      </trkpt>
      <trkpt lat="44.87557" lon="-0.66012">
        <ele>20.81</ele>
        <time>2021-06-30T13:23:35Z</time>
      </trkpt>
      <trkpt lat="44.87557" lon="-0.66012">
        <ele>20.81</ele>
        <time>2021-06-30T13:23:36Z</time>
      </trkpt>
      <trkpt lat="44.87565" lon="-0.66016">
        <ele>20.81</ele>
        <time>2021-06-30T13:23:37Z</time>
      </trkpt>
      <trkpt lat="44.87661" lon="-0.66058">
        <ele>19.84</ele>
        <time>2021-06-30T13:23:45Z</time>
      </trkpt>
      <trkpt lat="44.87832" lon="-0.66128">
        <ele>18.88</ele>
        <time>2021-06-30T13:23:55Z</time>
      </trkpt>
      <trkpt lat="44.88144" lon="-0.66247">
        <ele>16.48</ele>
        <time>2021-06-30T13:24:11Z</time>
      </trkpt>
      <trkpt lat="44.88298" lon="-0.66315">
        <ele>16.48</ele>
        <time>2021-06-30T13:24:21Z</time>
      </trkpt>
      <trkpt lat="44.88423" lon="-0.66399">
        <ele>12.63</ele>
        <time>2021-06-30T13:24:33Z</time>
      </trkpt>
      <trkpt lat="44.88453" lon="-0.66416">
        <ele>12.15</ele>
        <time>2021-06-30T13:24:37Z</time>
      </trkpt>
      <trkpt lat="44.88453" lon="-0.66416">
        <ele>12.15</ele>
        <time>2021-06-30T13:24:38Z</time>
      </trkpt>
      <trkpt lat="44.88465" lon="-0.66417">
        <ele>12.15</ele>
        <time>2021-06-30T13:24:39Z</time>
      </trkpt>
      <trkpt lat="44.88465" lon="-0.66417">
        <ele>12.15</ele>
        <time>2021-06-30T13:24:40Z</time>
      </trkpt>
      <trkpt lat="44.88473" lon="-0.66416">
        <ele>12.15</ele>
        <time>2021-06-30T13:24:41Z</time>
      </trkpt>
      <trkpt lat="44.88486" lon="-0.66423">
        <ele>12.63</ele>
        <time>2021-06-30T13:24:42Z</time>
      </trkpt>
      <trkpt lat="44.88486" lon="-0.66423">
        <ele>12.63</ele>
        <time>2021-06-30T13:24:43Z</time>
      </trkpt>
      <trkpt lat="44.8849" lon="-0.66431">
        <ele>13.12</ele>
        <time>2021-06-30T13:24:44Z</time>
      </trkpt>
      <trkpt lat="44.885" lon="-0.66451">
        <ele>13.12</ele>
        <time>2021-06-30T13:24:45Z</time>
      </trkpt>
      <trkpt lat="44.885" lon="-0.66451">
        <ele>13.6</ele>
        <time>2021-06-30T13:24:46Z</time>
      </trkpt>
      <trkpt lat="44.88505" lon="-0.6646">
        <ele>14.08</ele>
        <time>2021-06-30T13:24:47Z</time>
      </trkpt>
      <trkpt lat="44.88511" lon="-0.6647">
        <ele>14.08</ele>
        <time>2021-06-30T13:24:48Z</time>
      </trkpt>
      <trkpt lat="44.886" lon="-0.66556">
        <ele>12.63</ele>
        <time>2021-06-30T13:24:56Z</time>
      </trkpt>
      <trkpt lat="44.88755" lon="-0.66708">
        <ele>9.27</ele>
        <time>2021-06-30T13:25:06Z</time>
      </trkpt>
      <trkpt lat="44.89042" lon="-0.66982">
        <ele>2.54</ele>
        <time>2021-06-30T13:25:24Z</time>
      </trkpt>
      <trkpt lat="44.89103" lon="-0.67042">
        <ele>1.1</ele>
        <time>2021-06-30T13:25:30Z</time>
      </trkpt>
      <trkpt lat="44.89109" lon="-0.67046">
        <ele>1.1</ele>
        <time>2021-06-30T13:25:31Z</time>
      </trkpt>
      <trkpt lat="44.89115" lon="-0.67049">
        <ele>1.1</ele>
        <time>2021-06-30T13:25:32Z</time>
      </trkpt>
      <trkpt lat="44.89128" lon="-0.67052">
        <ele>1.58</ele>
        <time>2021-06-30T13:25:34Z</time>
      </trkpt>
      <trkpt lat="44.89136" lon="-0.67052">
        <ele>1.58</ele>
        <time>2021-06-30T13:25:35Z</time>
      </trkpt>
      <trkpt lat="44.89148" lon="-0.67062">
        <ele>1.58</ele>
        <time>2021-06-30T13:25:36Z</time>
      </trkpt>
      <trkpt lat="44.89152" lon="-0.67072">
        <ele>1.58</ele>
        <time>2021-06-30T13:25:37Z</time>
      </trkpt>
      <trkpt lat="44.89152" lon="-0.67072">
        <ele>2.06</ele>
        <time>2021-06-30T13:25:38Z</time>
      </trkpt>
      <trkpt lat="44.89153" lon="-0.67075">
        <ele>2.06</ele>
        <time>2021-06-30T13:25:39Z</time>
      </trkpt>
      <trkpt lat="44.89156" lon="-0.67105">
        <ele>2.06</ele>
        <time>2021-06-30T13:25:40Z</time>
      </trkpt>
      <trkpt lat="44.89162" lon="-0.6711">
        <ele>2.06</ele>
        <time>2021-06-30T13:25:41Z</time>
      </trkpt>
      <trkpt lat="44.89178" lon="-0.67125">
        <ele>2.54</ele>
        <time>2021-06-30T13:25:42Z</time>
      </trkpt>
      <trkpt lat="44.89178" lon="-0.67125">
        <ele>2.54</ele>
        <time>2021-06-30T13:25:43Z</time>
      </trkpt>
      <trkpt lat="44.89269" lon="-0.67209">
        <ele>0.14</ele>
        <time>2021-06-30T13:25:51Z</time>
      </trkpt>
      <trkpt lat="44.89411" lon="-0.67347">
        <ele>-0.34</ele>
        <time>2021-06-30T13:26:00Z</time>
      </trkpt>
      <trkpt lat="44.89697" lon="-0.67629">
        <ele>2.54</ele>
        <time>2021-06-30T13:26:15Z</time>
      </trkpt>
      <trkpt lat="44.89902" lon="-0.67878">
        <ele>10.23</ele>
        <time>2021-06-30T13:26:26Z</time>
      </trkpt>
      <trkpt lat="44.90027" lon="-0.68074">
        <ele>11.67</ele>
        <time>2021-06-30T13:26:35Z</time>
      </trkpt>
      <trkpt lat="44.90062" lon="-0.68131">
        <ele>11.67</ele>
        <time>2021-06-30T13:26:39Z</time>
      </trkpt>
      <trkpt lat="44.9007" lon="-0.6814">
        <ele>10.71</ele>
        <time>2021-06-30T13:26:40Z</time>
      </trkpt>
      <trkpt lat="44.90078" lon="-0.68149">
        <ele>11.19</ele>
        <time>2021-06-30T13:26:41Z</time>
      </trkpt>
      <trkpt lat="44.90084" lon="-0.68156">
        <ele>10.71</ele>
        <time>2021-06-30T13:26:42Z</time>
      </trkpt>
      <trkpt lat="44.90092" lon="-0.68159">
        <ele>11.19</ele>
        <time>2021-06-30T13:26:43Z</time>
      </trkpt>
      <trkpt lat="44.901" lon="-0.68166">
        <ele>11.67</ele>
        <time>2021-06-30T13:26:44Z</time>
      </trkpt>
      <trkpt lat="44.90105" lon="-0.68175">
        <ele>12.15</ele>
        <time>2021-06-30T13:26:45Z</time>
      </trkpt>
      <trkpt lat="44.90107" lon="-0.68185">
        <ele>13.12</ele>
        <time>2021-06-30T13:26:46Z</time>
      </trkpt>
      <trkpt lat="44.90106" lon="-0.68196">
        <ele>13.12</ele>
        <time>2021-06-30T13:26:47Z</time>
      </trkpt>
      <trkpt lat="44.90106" lon="-0.68211">
        <ele>11.67</ele>
        <time>2021-06-30T13:26:48Z</time>
      </trkpt>
      <trkpt lat="44.90109" lon="-0.68223">
        <ele>11.19</ele>
        <time>2021-06-30T13:26:49Z</time>
      </trkpt>
      <trkpt lat="44.90112" lon="-0.68236">
        <ele>11.67</ele>
        <time>2021-06-30T13:26:50Z</time>
      </trkpt>
      <trkpt lat="44.90164" lon="-0.6837">
        <ele>11.67</ele>
        <time>2021-06-30T13:26:58Z</time>
      </trkpt>
      <trkpt lat="44.90245" lon="-0.6861">
        <ele>16.96</ele>
        <time>2021-06-30T13:27:09Z</time>
      </trkpt>
      <trkpt lat="44.90339" lon="-0.6896">
        <ele>19.84</ele>
        <time>2021-06-30T13:27:25Z</time>
      </trkpt>
      <trkpt lat="44.90395" lon="-0.69176">
        <ele>20.32</ele>
        <time>2021-06-30T13:27:35Z</time>
      </trkpt>
      <trkpt lat="44.90464" lon="-0.69449">
        <ele>20.32</ele>
        <time>2021-06-30T13:27:49Z</time>
      </trkpt>
      <trkpt lat="44.90499" lon="-0.69588">
        <ele>18.88</ele>
        <time>2021-06-30T13:27:59Z</time>
      </trkpt>
      <trkpt lat="44.90501" lon="-0.69598">
        <ele>18.88</ele>
        <time>2021-06-30T13:28:00Z</time>
      </trkpt>
      <trkpt lat="44.90514" lon="-0.69604">
        <ele>18.88</ele>
        <time>2021-06-30T13:28:01Z</time>
      </trkpt>
      <trkpt lat="44.90524" lon="-0.69612">
        <ele>19.36</ele>
        <time>2021-06-30T13:28:03Z</time>
      </trkpt>
      <trkpt lat="44.90529" lon="-0.6962">
        <ele>19.36</ele>
        <time>2021-06-30T13:28:04Z</time>
      </trkpt>
      <trkpt lat="44.90533" lon="-0.69633">
        <ele>19.36</ele>
        <time>2021-06-30T13:28:05Z</time>
      </trkpt>
      <trkpt lat="44.90532" lon="-0.69643">
        <ele>19.84</ele>
        <time>2021-06-30T13:28:06Z</time>
      </trkpt>
      <trkpt lat="44.90531" lon="-0.69652">
        <ele>18.88</ele>
        <time>2021-06-30T13:28:07Z</time>
      </trkpt>
      <trkpt lat="44.90531" lon="-0.69652">
        <ele>17.44</ele>
        <time>2021-06-30T13:28:08Z</time>
      </trkpt>
      <trkpt lat="44.90523" lon="-0.69684">
        <ele>16.48</ele>
        <time>2021-06-30T13:28:09Z</time>
      </trkpt>
      <trkpt lat="44.90528" lon="-0.69697">
        <ele>16.48</ele>
        <time>2021-06-30T13:28:10Z</time>
      </trkpt>
      <trkpt lat="44.90572" lon="-0.69861">
        <ele>16</ele>
        <time>2021-06-30T13:28:19Z</time>
      </trkpt>
      <trkpt lat="44.90645" lon="-0.70146">
        <ele>19.36</ele>
        <time>2021-06-30T13:28:34Z</time>
      </trkpt>
      <trkpt lat="44.90711" lon="-0.70467">
        <ele>23.21</ele>
        <time>2021-06-30T13:28:51Z</time>
      </trkpt>
      <trkpt lat="44.90746" lon="-0.70716">
        <ele>24.65</ele>
        <time>2021-06-30T13:29:04Z</time>
      </trkpt>
      <trkpt lat="44.90755" lon="-0.70821">
        <ele>25.61</ele>
        <time>2021-06-30T13:29:11Z</time>
      </trkpt>
      <trkpt lat="44.90756" lon="-0.70832">
        <ele>25.61</ele>
        <time>2021-06-30T13:29:12Z</time>
      </trkpt>
      <trkpt lat="44.90756" lon="-0.7084">
        <ele>26.09</ele>
        <time>2021-06-30T13:29:13Z</time>
      </trkpt>
      <trkpt lat="44.90778" lon="-0.70856">
        <ele>27.05</ele>
        <time>2021-06-30T13:29:15Z</time>
      </trkpt>
      <trkpt lat="44.90781" lon="-0.70864">
        <ele>27.05</ele>
        <time>2021-06-30T13:29:16Z</time>
      </trkpt>
      <trkpt lat="44.90784" lon="-0.70873">
        <ele>27.53</ele>
        <time>2021-06-30T13:29:17Z</time>
      </trkpt>
      <trkpt lat="44.9078" lon="-0.70887">
        <ele>27.05</ele>
        <time>2021-06-30T13:29:18Z</time>
      </trkpt>
      <trkpt lat="44.90778" lon="-0.70894">
        <ele>27.05</ele>
        <time>2021-06-30T13:29:19Z</time>
      </trkpt>
      <trkpt lat="44.90778" lon="-0.70894">
        <ele>27.05</ele>
        <time>2021-06-30T13:29:20Z</time>
      </trkpt>
      <trkpt lat="44.90763" lon="-0.70916">
        <ele>26.57</ele>
        <time>2021-06-30T13:29:21Z</time>
      </trkpt>
      <trkpt lat="44.90763" lon="-0.70929">
        <ele>27.05</ele>
        <time>2021-06-30T13:29:22Z</time>
      </trkpt>
      <trkpt lat="44.90763" lon="-0.70943">
        <ele>27.05</ele>
        <time>2021-06-30T13:29:23Z</time>
      </trkpt>
      <trkpt lat="44.90768" lon="-0.7113">
        <ele>27.05</ele>
        <time>2021-06-30T13:29:33Z</time>
      </trkpt>
      <trkpt lat="44.90766" lon="-0.71311">
        <ele>28.02</ele>
        <time>2021-06-30T13:29:44Z</time>
      </trkpt>
      <trkpt lat="44.90765" lon="-0.71342">
        <ele>27.53</ele>
        <time>2021-06-30T13:29:47Z</time>
      </trkpt>
      <trkpt lat="44.90765" lon="-0.7135">
        <ele>28.02</ele>
        <time>2021-06-30T13:29:48Z</time>
      </trkpt>
      <trkpt lat="44.90769" lon="-0.7136">
        <ele>28.02</ele>
        <time>2021-06-30T13:29:49Z</time>
      </trkpt>
      <trkpt lat="44.90773" lon="-0.71365">
        <ele>28.5</ele>
        <time>2021-06-30T13:29:50Z</time>
      </trkpt>
      <trkpt lat="44.90778" lon="-0.71378">
        <ele>28.98</ele>
        <time>2021-06-30T13:29:51Z</time>
      </trkpt>
      <trkpt lat="44.90776" lon="-0.71387">
        <ele>29.46</ele>
        <time>2021-06-30T13:29:52Z</time>
      </trkpt>
      <trkpt lat="44.90764" lon="-0.71403">
        <ele>28.02</ele>
        <time>2021-06-30T13:29:53Z</time>
      </trkpt>
      <trkpt lat="44.90764" lon="-0.71403">
        <ele>28.02</ele>
        <time>2021-06-30T13:29:54Z</time>
      </trkpt>
      <trkpt lat="44.90762" lon="-0.71423">
        <ele>27.53</ele>
        <time>2021-06-30T13:29:55Z</time>
      </trkpt>
      <trkpt lat="44.90762" lon="-0.71423">
        <ele>27.05</ele>
        <time>2021-06-30T13:29:56Z</time>
      </trkpt>
      <trkpt lat="44.90761" lon="-0.71436">
        <ele>26.57</ele>
        <time>2021-06-30T13:29:57Z</time>
      </trkpt>
      <trkpt lat="44.90754" lon="-0.71576">
        <ele>26.09</ele>
        <time>2021-06-30T13:30:05Z</time>
      </trkpt>
      <trkpt lat="44.90734" lon="-0.71802">
        <ele>28.02</ele>
        <time>2021-06-30T13:30:16Z</time>
      </trkpt>
      <trkpt lat="44.90694" lon="-0.72166">
        <ele>28.02</ele>
        <time>2021-06-30T13:30:33Z</time>
      </trkpt>
      <trkpt lat="44.90673" lon="-0.72376">
        <ele>28.5</ele>
        <time>2021-06-30T13:30:45Z</time>
      </trkpt>
      <trkpt lat="44.90668" lon="-0.72419">
        <ele>30.42</ele>
        <time>2021-06-30T13:30:51Z</time>
      </trkpt>
      <trkpt lat="44.90667" lon="-0.72455">
        <ele>28.98</ele>
        <time>2021-06-30T13:30:59Z</time>
      </trkpt>
      <trkpt lat="44.90667" lon="-0.72464">
        <ele>28.98</ele>
        <time>2021-06-30T13:31:00Z</time>
      </trkpt>
      <trkpt lat="44.90668" lon="-0.72473">
        <ele>28.98</ele>
        <time>2021-06-30T13:31:01Z</time>
      </trkpt>
      <trkpt lat="44.90677" lon="-0.72487">
        <ele>29.46</ele>
        <time>2021-06-30T13:31:02Z</time>
      </trkpt>
      <trkpt lat="44.90677" lon="-0.72487">
        <ele>29.46</ele>
        <time>2021-06-30T13:31:03Z</time>
      </trkpt>
      <trkpt lat="44.90683" lon="-0.72494">
        <ele>28.98</ele>
        <time>2021-06-30T13:31:04Z</time>
      </trkpt>
      <trkpt lat="44.90689" lon="-0.72506">
        <ele>28.98</ele>
        <time>2021-06-30T13:31:05Z</time>
      </trkpt>
      <trkpt lat="44.90689" lon="-0.72518">
        <ele>29.46</ele>
        <time>2021-06-30T13:31:06Z</time>
      </trkpt>
      <trkpt lat="44.90688" lon="-0.72527">
        <ele>29.94</ele>
        <time>2021-06-30T13:31:07Z</time>
      </trkpt>
      <trkpt lat="44.90683" lon="-0.72536">
        <ele>29.94</ele>
        <time>2021-06-30T13:31:08Z</time>
      </trkpt>
      <trkpt lat="44.90677" lon="-0.72542">
        <ele>29.94</ele>
        <time>2021-06-30T13:31:09Z</time>
      </trkpt>
      <trkpt lat="44.90672" lon="-0.72546">
        <ele>29.94</ele>
        <time>2021-06-30T13:31:10Z</time>
      </trkpt>
      <trkpt lat="44.9066" lon="-0.7256">
        <ele>29.94</ele>
        <time>2021-06-30T13:31:11Z</time>
      </trkpt>
      <trkpt lat="44.90659" lon="-0.72571">
        <ele>29.94</ele>
        <time>2021-06-30T13:31:12Z</time>
      </trkpt>
      <trkpt lat="44.90658" lon="-0.72583">
        <ele>29.94</ele>
        <time>2021-06-30T13:31:13Z</time>
      </trkpt>
      <trkpt lat="44.90657" lon="-0.72598">
        <ele>29.94</ele>
        <time>2021-06-30T13:31:14Z</time>
      </trkpt>
      <trkpt lat="44.90655" lon="-0.72755">
        <ele>28.02</ele>
        <time>2021-06-30T13:31:22Z</time>
      </trkpt>
      <trkpt lat="44.90661" lon="-0.73058">
        <ele>28.5</ele>
        <time>2021-06-30T13:31:34Z</time>
      </trkpt>
      <trkpt lat="44.90678" lon="-0.73506">
        <ele>29.46</ele>
        <time>2021-06-30T13:31:52Z</time>
      </trkpt>
      <trkpt lat="44.90691" lon="-0.73968">
        <ele>30.42</ele>
        <time>2021-06-30T13:32:10Z</time>
      </trkpt>
      <trkpt lat="44.90691" lon="-0.74272">
        <ele>30.42</ele>
        <time>2021-06-30T13:32:23Z</time>
      </trkpt>
      <trkpt lat="44.90687" lon="-0.74404">
        <ele>31.38</ele>
        <time>2021-06-30T13:32:31Z</time>
      </trkpt>
      <trkpt lat="44.90686" lon="-0.74424">
        <ele>32.34</ele>
        <time>2021-06-30T13:32:38Z</time>
      </trkpt>
      <trkpt lat="44.90685" lon="-0.74466">
        <ele>31.86</ele>
        <time>2021-06-30T13:32:45Z</time>
      </trkpt>
      <trkpt lat="44.90685" lon="-0.74473">
        <ele>31.86</ele>
        <time>2021-06-30T13:32:46Z</time>
      </trkpt>
      <trkpt lat="44.90685" lon="-0.7448">
        <ele>31.86</ele>
        <time>2021-06-30T13:32:47Z</time>
      </trkpt>
      <trkpt lat="44.90685" lon="-0.7448">
        <ele>31.86</ele>
        <time>2021-06-30T13:32:48Z</time>
      </trkpt>
      <trkpt lat="44.90696" lon="-0.74483">
        <ele>31.86</ele>
        <time>2021-06-30T13:32:49Z</time>
      </trkpt>
      <trkpt lat="44.90703" lon="-0.74493">
        <ele>32.34</ele>
        <time>2021-06-30T13:32:50Z</time>
      </trkpt>
      <trkpt lat="44.90707" lon="-0.74501">
        <ele>32.82</ele>
        <time>2021-06-30T13:32:51Z</time>
      </trkpt>
      <trkpt lat="44.90709" lon="-0.74516">
        <ele>33.3</ele>
        <time>2021-06-30T13:32:52Z</time>
      </trkpt>
      <trkpt lat="44.90707" lon="-0.7453">
        <ele>33.3</ele>
        <time>2021-06-30T13:32:53Z</time>
      </trkpt>
      <trkpt lat="44.90703" lon="-0.74539">
        <ele>32.82</ele>
        <time>2021-06-30T13:32:54Z</time>
      </trkpt>
      <trkpt lat="44.90687" lon="-0.74547">
        <ele>32.82</ele>
        <time>2021-06-30T13:32:55Z</time>
      </trkpt>
      <trkpt lat="44.90687" lon="-0.74547">
        <ele>32.82</ele>
        <time>2021-06-30T13:32:56Z</time>
      </trkpt>
      <trkpt lat="44.90676" lon="-0.74559">
        <ele>33.3</ele>
        <time>2021-06-30T13:32:57Z</time>
      </trkpt>
      <trkpt lat="44.90674" lon="-0.74572">
        <ele>33.3</ele>
        <time>2021-06-30T13:32:58Z</time>
      </trkpt>
      <trkpt lat="44.90671" lon="-0.74587">
        <ele>33.78</ele>
        <time>2021-06-30T13:32:59Z</time>
      </trkpt>
      <trkpt lat="44.90668" lon="-0.74604">
        <ele>33.3</ele>
        <time>2021-06-30T13:33:00Z</time>
      </trkpt>
      <trkpt lat="44.90646" lon="-0.74766">
        <ele>33.3</ele>
        <time>2021-06-30T13:33:08Z</time>
      </trkpt>
      <trkpt lat="44.90653" lon="-0.7495">
        <ele>32.34</ele>
        <time>2021-06-30T13:33:15Z</time>
      </trkpt>
      <trkpt lat="44.90719" lon="-0.75155">
        <ele>32.82</ele>
        <time>2021-06-30T13:33:23Z</time>
      </trkpt>
      <trkpt lat="44.90908" lon="-0.7564">
        <ele>32.34</ele>
        <time>2021-06-30T13:33:41Z</time>
      </trkpt>
      <trkpt lat="44.9107" lon="-0.76047">
        <ele>34.26</ele>
        <time>2021-06-30T13:33:57Z</time>
      </trkpt>
      <trkpt lat="44.91262" lon="-0.76528">
        <ele>38.59</ele>
        <time>2021-06-30T13:34:17Z</time>
      </trkpt>
      <trkpt lat="44.91437" lon="-0.76966">
        <ele>41.47</ele>
        <time>2021-06-30T13:34:35Z</time>
      </trkpt>
      <trkpt lat="44.91584" lon="-0.77327">
        <ele>42.44</ele>
        <time>2021-06-30T13:34:50Z</time>
      </trkpt>
      <trkpt lat="44.91811" lon="-0.77893">
        <ele>43.4</ele>
        <time>2021-06-30T13:35:13Z</time>
      </trkpt>
      <trkpt lat="44.9198" lon="-0.78313">
        <ele>44.84</ele>
        <time>2021-06-30T13:35:30Z</time>
      </trkpt>
      <trkpt lat="44.92243" lon="-0.78961">
        <ele>45.8</ele>
        <time>2021-06-30T13:35:56Z</time>
      </trkpt>
      <trkpt lat="44.92474" lon="-0.79533">
        <ele>44.36</ele>
        <time>2021-06-30T13:36:19Z</time>
      </trkpt>
      <trkpt lat="44.92689" lon="-0.80065">
        <ele>44.36</ele>
        <time>2021-06-30T13:36:41Z</time>
      </trkpt>
      <trkpt lat="44.92927" lon="-0.80655">
        <ele>45.32</ele>
        <time>2021-06-30T13:37:05Z</time>
      </trkpt>
      <trkpt lat="44.93095" lon="-0.81071">
        <ele>44.36</ele>
        <time>2021-06-30T13:37:22Z</time>
      </trkpt>
      <trkpt lat="44.93307" lon="-0.81597">
        <ele>43.88</ele>
        <time>2021-06-30T13:37:43Z</time>
      </trkpt>
      <trkpt lat="44.93514" lon="-0.8211">
        <ele>45.8</ele>
        <time>2021-06-30T13:38:04Z</time>
      </trkpt>
      <trkpt lat="44.93715" lon="-0.82609">
        <ele>48.2</ele>
        <time>2021-06-30T13:38:25Z</time>
      </trkpt>
      <trkpt lat="44.93772" lon="-0.82748">
        <ele>52.05</ele>
        <time>2021-06-30T13:38:32Z</time>
      </trkpt>
      <trkpt lat="44.9378" lon="-0.82769">
        <ele>50.61</ele>
        <time>2021-06-30T13:38:35Z</time>
      </trkpt>
      <trkpt lat="44.93784" lon="-0.82777">
        <ele>50.13</ele>
        <time>2021-06-30T13:38:36Z</time>
      </trkpt>
      <trkpt lat="44.93801" lon="-0.82783">
        <ele>48.68</ele>
        <time>2021-06-30T13:38:38Z</time>
      </trkpt>
      <trkpt lat="44.93805" lon="-0.82788">
        <ele>48.2</ele>
        <time>2021-06-30T13:38:39Z</time>
      </trkpt>
      <trkpt lat="44.93805" lon="-0.82799">
        <ele>48.2</ele>
        <time>2021-06-30T13:38:40Z</time>
      </trkpt>
      <trkpt lat="44.93805" lon="-0.82803">
        <ele>47.72</ele>
        <time>2021-06-30T13:38:41Z</time>
      </trkpt>
      <trkpt lat="44.93802" lon="-0.82823">
        <ele>46.28</ele>
        <time>2021-06-30T13:38:42Z</time>
      </trkpt>
      <trkpt lat="44.93806" lon="-0.82832">
        <ele>46.28</ele>
        <time>2021-06-30T13:38:43Z</time>
      </trkpt>
      <trkpt lat="44.9381" lon="-0.82843">
        <ele>46.28</ele>
        <time>2021-06-30T13:38:44Z</time>
      </trkpt>
      <trkpt lat="44.93815" lon="-0.82856">
        <ele>44.84</ele>
        <time>2021-06-30T13:38:45Z</time>
      </trkpt>
      <trkpt lat="44.93873" lon="-0.82999">
        <ele>40.51</ele>
        <time>2021-06-30T13:38:53Z</time>
      </trkpt>
      <trkpt lat="44.93965" lon="-0.83238">
        <ele>40.03</ele>
        <time>2021-06-30T13:39:03Z</time>
      </trkpt>
      <trkpt lat="44.94136" lon="-0.83698">
        <ele>40.99</ele>
        <time>2021-06-30T13:39:19Z</time>
      </trkpt>
      <trkpt lat="44.94242" lon="-0.83981">
        <ele>44.36</ele>
        <time>2021-06-30T13:39:31Z</time>
      </trkpt>
      <trkpt lat="44.9435" lon="-0.84202">
        <ele>43.4</ele>
        <time>2021-06-30T13:39:40Z</time>
      </trkpt>
      <trkpt lat="44.94541" lon="-0.84557">
        <ele>43.4</ele>
        <time>2021-06-30T13:39:55Z</time>
      </trkpt>
      <trkpt lat="44.94722" lon="-0.84894">
        <ele>42.44</ele>
        <time>2021-06-30T13:40:09Z</time>
      </trkpt>
      <trkpt lat="44.94853" lon="-0.85137">
        <ele>40.51</ele>
        <time>2021-06-30T13:40:21Z</time>
      </trkpt>
      <trkpt lat="44.95101" lon="-0.85591">
        <ele>39.55</ele>
        <time>2021-06-30T13:40:42Z</time>
      </trkpt>
      <trkpt lat="44.95301" lon="-0.85965">
        <ele>35.23</ele>
        <time>2021-06-30T13:40:58Z</time>
      </trkpt>
      <trkpt lat="44.95508" lon="-0.86347">
        <ele>34.74</ele>
        <time>2021-06-30T13:41:17Z</time>
      </trkpt>
      <trkpt lat="44.95629" lon="-0.86545">
        <ele>33.78</ele>
        <time>2021-06-30T13:41:28Z</time>
      </trkpt>
      <trkpt lat="44.95734" lon="-0.86692">
        <ele>33.3</ele>
        <time>2021-06-30T13:41:39Z</time>
      </trkpt>
      <trkpt lat="44.95764" lon="-0.86728">
        <ele>34.74</ele>
        <time>2021-06-30T13:41:43Z</time>
      </trkpt>
      <trkpt lat="44.95777" lon="-0.86741">
        <ele>35.71</ele>
        <time>2021-06-30T13:41:44Z</time>
      </trkpt>
      <trkpt lat="44.95784" lon="-0.86742">
        <ele>37.15</ele>
        <time>2021-06-30T13:41:46Z</time>
      </trkpt>
      <trkpt lat="44.95792" lon="-0.86743">
        <ele>37.63</ele>
        <time>2021-06-30T13:41:47Z</time>
      </trkpt>
      <trkpt lat="44.95798" lon="-0.86754">
        <ele>37.63</ele>
        <time>2021-06-30T13:41:48Z</time>
      </trkpt>
      <trkpt lat="44.95869" lon="-0.86815">
        <ele>40.51</ele>
        <time>2021-06-30T13:41:55Z</time>
      </trkpt>
      <trkpt lat="44.95994" lon="-0.86899">
        <ele>41.95</ele>
        <time>2021-06-30T13:42:03Z</time>
      </trkpt>
      <trkpt lat="44.96286" lon="-0.8705">
        <ele>44.36</ele>
        <time>2021-06-30T13:42:18Z</time>
      </trkpt>
      <trkpt lat="44.96531" lon="-0.87176">
        <ele>42.92</ele>
        <time>2021-06-30T13:42:31Z</time>
      </trkpt>
      <trkpt lat="44.96684" lon="-0.8726">
        <ele>44.36</ele>
        <time>2021-06-30T13:42:40Z</time>
      </trkpt>
      <trkpt lat="44.96852" lon="-0.874">
        <ele>43.88</ele>
        <time>2021-06-30T13:42:52Z</time>
      </trkpt>
      <trkpt lat="44.96999" lon="-0.87584">
        <ele>34.26</ele>
        <time>2021-06-30T13:43:03Z</time>
      </trkpt>
      <trkpt lat="44.97103" lon="-0.87783">
        <ele>32.34</ele>
        <time>2021-06-30T13:43:13Z</time>
      </trkpt>
      <trkpt lat="44.97184" lon="-0.88011">
        <ele>33.3</ele>
        <time>2021-06-30T13:43:23Z</time>
      </trkpt>
      <trkpt lat="44.97235" lon="-0.88294">
        <ele>36.67</ele>
        <time>2021-06-30T13:43:34Z</time>
      </trkpt>
      <trkpt lat="44.97241" lon="-0.88613">
        <ele>36.67</ele>
        <time>2021-06-30T13:43:46Z</time>
      </trkpt>
      <trkpt lat="44.97205" lon="-0.88881">
        <ele>36.19</ele>
        <time>2021-06-30T13:43:57Z</time>
      </trkpt>
      <trkpt lat="44.97127" lon="-0.8914">
        <ele>36.67</ele>
        <time>2021-06-30T13:44:08Z</time>
      </trkpt>
      <trkpt lat="44.97005" lon="-0.89444">
        <ele>34.26</ele>
        <time>2021-06-30T13:44:20Z</time>
      </trkpt>
      <trkpt lat="44.96872" lon="-0.89769">
        <ele>33.3</ele>
        <time>2021-06-30T13:44:33Z</time>
      </trkpt>
      <trkpt lat="44.96793" lon="-0.90072">
        <ele>30.42</ele>
        <time>2021-06-30T13:44:43Z</time>
      </trkpt>
      <trkpt lat="44.96769" lon="-0.90338">
        <ele>29.94</ele>
        <time>2021-06-30T13:44:53Z</time>
      </trkpt>
      <trkpt lat="44.96785" lon="-0.9076">
        <ele>29.94</ele>
        <time>2021-06-30T13:45:07Z</time>
      </trkpt>
      <trkpt lat="44.96822" lon="-0.91259">
        <ele>33.3</ele>
        <time>2021-06-30T13:45:23Z</time>
      </trkpt>
      <trkpt lat="44.96865" lon="-0.91824">
        <ele>34.26</ele>
        <time>2021-06-30T13:45:43Z</time>
      </trkpt>
      <trkpt lat="44.96912" lon="-0.92428">
        <ele>34.26</ele>
        <time>2021-06-30T13:46:02Z</time>
      </trkpt>
      <trkpt lat="44.96953" lon="-0.92952">
        <ele>33.3</ele>
        <time>2021-06-30T13:46:20Z</time>
      </trkpt>
      <trkpt lat="44.97" lon="-0.93566">
        <ele>33.3</ele>
        <time>2021-06-30T13:46:40Z</time>
      </trkpt>
      <trkpt lat="44.97051" lon="-0.94209">
        <ele>33.78</ele>
        <time>2021-06-30T13:47:01Z</time>
      </trkpt>
      <trkpt lat="44.97095" lon="-0.94797">
        <ele>33.78</ele>
        <time>2021-06-30T13:47:19Z</time>
      </trkpt>
      <trkpt lat="44.97142" lon="-0.95407">
        <ele>33.3</ele>
        <time>2021-06-30T13:47:40Z</time>
      </trkpt>
      <trkpt lat="44.97184" lon="-0.95973">
        <ele>32.82</ele>
        <time>2021-06-30T13:47:59Z</time>
      </trkpt>
      <trkpt lat="44.97228" lon="-0.96556">
        <ele>32.82</ele>
        <time>2021-06-30T13:48:20Z</time>
      </trkpt>
      <trkpt lat="44.97264" lon="-0.97026">
        <ele>32.34</ele>
        <time>2021-06-30T13:48:37Z</time>
      </trkpt>
      <trkpt lat="44.97299" lon="-0.97498">
        <ele>32.34</ele>
        <time>2021-06-30T13:48:54Z</time>
      </trkpt>
      <trkpt lat="44.97331" lon="-0.9792">
        <ele>31.86</ele>
        <time>2021-06-30T13:49:09Z</time>
      </trkpt>
      <trkpt lat="44.97366" lon="-0.98473">
        <ele>30.42</ele>
        <time>2021-06-30T13:49:28Z</time>
      </trkpt>
      <trkpt lat="44.97397" lon="-0.98948">
        <ele>28.02</ele>
        <time>2021-06-30T13:49:45Z</time>
      </trkpt>
      <trkpt lat="44.97422" lon="-0.99351">
        <ele>27.53</ele>
        <time>2021-06-30T13:49:59Z</time>
      </trkpt>
      <trkpt lat="44.9746" lon="-0.9994">
        <ele>26.09</ele>
        <time>2021-06-30T13:50:19Z</time>
      </trkpt>
      <trkpt lat="44.97482" lon="-1.00275">
        <ele>25.61</ele>
        <time>2021-06-30T13:50:31Z</time>
      </trkpt>
      <trkpt lat="44.97512" lon="-1.00752">
        <ele>24.17</ele>
        <time>2021-06-30T13:50:50Z</time>
      </trkpt>
      <trkpt lat="44.97542" lon="-1.01227">
        <ele>23.69</ele>
        <time>2021-06-30T13:51:08Z</time>
      </trkpt>
      <trkpt lat="44.9757" lon="-1.01671">
        <ele>22.73</ele>
        <time>2021-06-30T13:51:24Z</time>
      </trkpt>
      <trkpt lat="44.97577" lon="-1.02036">
        <ele>23.69</ele>
        <time>2021-06-30T13:51:37Z</time>
      </trkpt>
      <trkpt lat="44.97588" lon="-1.02739">
        <ele>22.73</ele>
        <time>2021-06-30T13:52:01Z</time>
      </trkpt>
      <trkpt lat="44.97595" lon="-1.03166">
        <ele>22.73</ele>
        <time>2021-06-30T13:52:16Z</time>
      </trkpt>
      <trkpt lat="44.97605" lon="-1.03796">
        <ele>19.36</ele>
        <time>2021-06-30T13:52:38Z</time>
      </trkpt>
      <trkpt lat="44.97613" lon="-1.04381">
        <ele>19.36</ele>
        <time>2021-06-30T13:52:58Z</time>
      </trkpt>
      <trkpt lat="44.97624" lon="-1.04977">
        <ele>18.4</ele>
        <time>2021-06-30T13:53:18Z</time>
      </trkpt>
      <trkpt lat="44.97633" lon="-1.05492">
        <ele>17.44</ele>
        <time>2021-06-30T13:53:36Z</time>
      </trkpt>
      <trkpt lat="44.9764" lon="-1.05896">
        <ele>16.48</ele>
        <time>2021-06-30T13:53:51Z</time>
      </trkpt>
      <trkpt lat="44.97643" lon="-1.06082">
        <ele>15.52</ele>
        <time>2021-06-30T13:54:00Z</time>
      </trkpt>
      <trkpt lat="44.97644" lon="-1.06113">
        <ele>15.52</ele>
        <time>2021-06-30T13:54:02Z</time>
      </trkpt>
      <trkpt lat="44.97644" lon="-1.06126">
        <ele>15.52</ele>
        <time>2021-06-30T13:54:03Z</time>
      </trkpt>
      <trkpt lat="44.97644" lon="-1.06136">
        <ele>15.04</ele>
        <time>2021-06-30T13:54:04Z</time>
      </trkpt>
      <trkpt lat="44.97644" lon="-1.06143">
        <ele>14.08</ele>
        <time>2021-06-30T13:54:05Z</time>
      </trkpt>
      <trkpt lat="44.97656" lon="-1.06151">
        <ele>13.6</ele>
        <time>2021-06-30T13:54:06Z</time>
      </trkpt>
      <trkpt lat="44.9766" lon="-1.0616">
        <ele>13.6</ele>
        <time>2021-06-30T13:54:07Z</time>
      </trkpt>
      <trkpt lat="44.97667" lon="-1.06171">
        <ele>13.6</ele>
        <time>2021-06-30T13:54:08Z</time>
      </trkpt>
      <trkpt lat="44.97676" lon="-1.06171">
        <ele>13.6</ele>
        <time>2021-06-30T13:54:09Z</time>
      </trkpt>
      <trkpt lat="44.97686" lon="-1.06172">
        <ele>13.6</ele>
        <time>2021-06-30T13:54:10Z</time>
      </trkpt>
      <trkpt lat="44.97812" lon="-1.0619">
        <ele>12.63</ele>
        <time>2021-06-30T13:54:19Z</time>
      </trkpt>
      <trkpt lat="44.97942" lon="-1.0623">
        <ele>12.63</ele>
        <time>2021-06-30T13:54:28Z</time>
      </trkpt>
      <trkpt lat="44.97952" lon="-1.06233">
        <ele>13.12</ele>
        <time>2021-06-30T13:54:29Z</time>
      </trkpt>
      <trkpt lat="44.9796" lon="-1.06235">
        <ele>13.12</ele>
        <time>2021-06-30T13:54:30Z</time>
      </trkpt>
      <trkpt lat="44.97977" lon="-1.06225">
        <ele>13.12</ele>
        <time>2021-06-30T13:54:32Z</time>
      </trkpt>
      <trkpt lat="44.97985" lon="-1.06224">
        <ele>13.12</ele>
        <time>2021-06-30T13:54:33Z</time>
      </trkpt>
      <trkpt lat="44.97991" lon="-1.06231">
        <ele>13.12</ele>
        <time>2021-06-30T13:54:34Z</time>
      </trkpt>
      <trkpt lat="44.97994" lon="-1.06235">
        <ele>13.12</ele>
        <time>2021-06-30T13:54:36Z</time>
      </trkpt>
      <trkpt lat="44.98007" lon="-1.06256">
        <ele>13.12</ele>
        <time>2021-06-30T13:54:37Z</time>
      </trkpt>
      <trkpt lat="44.98015" lon="-1.06258">
        <ele>14.08</ele>
        <time>2021-06-30T13:54:38Z</time>
      </trkpt>
      <trkpt lat="44.98113" lon="-1.06304">
        <ele>15.04</ele>
        <time>2021-06-30T13:54:46Z</time>
      </trkpt>
      <trkpt lat="44.98256" lon="-1.06407">
        <ele>16.48</ele>
        <time>2021-06-30T13:54:55Z</time>
      </trkpt>
      <trkpt lat="44.98396" lon="-1.0657">
        <ele>14.56</ele>
        <time>2021-06-30T13:55:04Z</time>
      </trkpt>
      <trkpt lat="44.98516" lon="-1.06786">
        <ele>11.67</ele>
        <time>2021-06-30T13:55:14Z</time>
      </trkpt>
      <trkpt lat="44.987" lon="-1.07202">
        <ele>8.31</ele>
        <time>2021-06-30T13:55:32Z</time>
      </trkpt>
      <trkpt lat="44.98912" lon="-1.0768">
        <ele>7.83</ele>
        <time>2021-06-30T13:55:53Z</time>
      </trkpt>
      <trkpt lat="44.98957" lon="-1.07783">
        <ele>6.39</ele>
        <time>2021-06-30T13:55:59Z</time>
      </trkpt>
      <trkpt lat="44.98967" lon="-1.07806">
        <ele>7.35</ele>
        <time>2021-06-30T13:56:01Z</time>
      </trkpt>
      <trkpt lat="44.9897" lon="-1.07814">
        <ele>8.79</ele>
        <time>2021-06-30T13:56:02Z</time>
      </trkpt>
      <trkpt lat="44.98987" lon="-1.07818">
        <ele>9.75</ele>
        <time>2021-06-30T13:56:04Z</time>
      </trkpt>
      <trkpt lat="44.98994" lon="-1.07836">
        <ele>9.75</ele>
        <time>2021-06-30T13:56:05Z</time>
      </trkpt>
      <trkpt lat="44.98994" lon="-1.07836">
        <ele>10.71</ele>
        <time>2021-06-30T13:56:06Z</time>
      </trkpt>
      <trkpt lat="44.98994" lon="-1.07846">
        <ele>11.19</ele>
        <time>2021-06-30T13:56:07Z</time>
      </trkpt>
      <trkpt lat="44.98994" lon="-1.07846">
        <ele>11.67</ele>
        <time>2021-06-30T13:56:08Z</time>
      </trkpt>
      <trkpt lat="44.98995" lon="-1.07871">
        <ele>11.67</ele>
        <time>2021-06-30T13:56:09Z</time>
      </trkpt>
      <trkpt lat="44.99001" lon="-1.07883">
        <ele>11.67</ele>
        <time>2021-06-30T13:56:10Z</time>
      </trkpt>
      <trkpt lat="44.99057" lon="-1.07994">
        <ele>9.75</ele>
        <time>2021-06-30T13:56:17Z</time>
      </trkpt>
      <trkpt lat="44.99171" lon="-1.08176">
        <ele>11.67</ele>
        <time>2021-06-30T13:56:26Z</time>
      </trkpt>
      <trkpt lat="44.99423" lon="-1.08526">
        <ele>12.63</ele>
        <time>2021-06-30T13:56:44Z</time>
      </trkpt>
      <trkpt lat="44.99542" lon="-1.08692">
        <ele>14.08</ele>
        <time>2021-06-30T13:56:55Z</time>
      </trkpt>
      <trkpt lat="44.99567" lon="-1.08727">
        <ele>15.04</ele>
        <time>2021-06-30T13:56:58Z</time>
      </trkpt>
      <trkpt lat="44.99567" lon="-1.08727">
        <ele>15.04</ele>
        <time>2021-06-30T13:56:59Z</time>
      </trkpt>
      <trkpt lat="44.99581" lon="-1.08728">
        <ele>15.04</ele>
        <time>2021-06-30T13:57:00Z</time>
      </trkpt>
      <trkpt lat="44.99589" lon="-1.08725">
        <ele>14.56</ele>
        <time>2021-06-30T13:57:01Z</time>
      </trkpt>
      <trkpt lat="44.99597" lon="-1.08729">
        <ele>14.08</ele>
        <time>2021-06-30T13:57:02Z</time>
      </trkpt>
      <trkpt lat="44.99603" lon="-1.08733">
        <ele>14.08</ele>
        <time>2021-06-30T13:57:03Z</time>
      </trkpt>
      <trkpt lat="44.99608" lon="-1.08744">
        <ele>14.08</ele>
        <time>2021-06-30T13:57:04Z</time>
      </trkpt>
      <trkpt lat="44.99612" lon="-1.08754">
        <ele>13.6</ele>
        <time>2021-06-30T13:57:05Z</time>
      </trkpt>
      <trkpt lat="44.99612" lon="-1.08754">
        <ele>12.63</ele>
        <time>2021-06-30T13:57:06Z</time>
      </trkpt>
      <trkpt lat="44.99618" lon="-1.08784">
        <ele>12.63</ele>
        <time>2021-06-30T13:57:07Z</time>
      </trkpt>
      <trkpt lat="44.99713" lon="-1.0889">
        <ele>14.08</ele>
        <time>2021-06-30T13:57:16Z</time>
      </trkpt>
      <trkpt lat="44.99932" lon="-1.0904">
        <ele>14.56</ele>
        <time>2021-06-30T13:57:30Z</time>
      </trkpt>
      <trkpt lat="45.00166" lon="-1.09202">
        <ele>16</ele>
        <time>2021-06-30T13:57:44Z</time>
      </trkpt>
      <trkpt lat="45.00366" lon="-1.09358">
        <ele>15.04</ele>
        <time>2021-06-30T13:57:56Z</time>
      </trkpt>
      <trkpt lat="45.00452" lon="-1.09514">
        <ele>10.23</ele>
        <time>2021-06-30T13:58:03Z</time>
      </trkpt>
      <trkpt lat="45.00506" lon="-1.09715">
        <ele>11.67</ele>
        <time>2021-06-30T13:58:11Z</time>
      </trkpt>
      <trkpt lat="45.00619" lon="-1.10173">
        <ele>9.75</ele>
        <time>2021-06-30T13:58:29Z</time>
      </trkpt>
      <trkpt lat="45.0073" lon="-1.10652">
        <ele>8.79</ele>
        <time>2021-06-30T13:58:48Z</time>
      </trkpt>
      <trkpt lat="45.00754" lon="-1.10933">
        <ele>10.71</ele>
        <time>2021-06-30T13:58:59Z</time>
      </trkpt>
      <trkpt lat="45.00763" lon="-1.11277">
        <ele>10.71</ele>
        <time>2021-06-30T13:59:13Z</time>
      </trkpt>
      <trkpt lat="45.00771" lon="-1.11616">
        <ele>11.67</ele>
        <time>2021-06-30T13:59:27Z</time>
      </trkpt>
      <trkpt lat="45.00778" lon="-1.11724">
        <ele>11.67</ele>
        <time>2021-06-30T13:59:33Z</time>
      </trkpt>
      <trkpt lat="45.00782" lon="-1.11736">
        <ele>11.19</ele>
        <time>2021-06-30T13:59:34Z</time>
      </trkpt>
      <trkpt lat="45.00793" lon="-1.11756">
        <ele>10.23</ele>
        <time>2021-06-30T13:59:35Z</time>
      </trkpt>
      <trkpt lat="45.008" lon="-1.11768">
        <ele>10.71</ele>
        <time>2021-06-30T13:59:36Z</time>
      </trkpt>
      <trkpt lat="45.00803" lon="-1.1178">
        <ele>10.71</ele>
        <time>2021-06-30T13:59:37Z</time>
      </trkpt>
      <trkpt lat="45.00803" lon="-1.1178">
        <ele>10.71</ele>
        <time>2021-06-30T13:59:38Z</time>
      </trkpt>
      <trkpt lat="45.00798" lon="-1.11797">
        <ele>11.19</ele>
        <time>2021-06-30T13:59:39Z</time>
      </trkpt>
      <trkpt lat="45.00799" lon="-1.11805">
        <ele>10.23</ele>
        <time>2021-06-30T13:59:40Z</time>
      </trkpt>
      <trkpt lat="45.00799" lon="-1.11817">
        <ele>10.23</ele>
        <time>2021-06-30T13:59:41Z</time>
      </trkpt>
      <trkpt lat="45.008" lon="-1.11829">
        <ele>10.23</ele>
        <time>2021-06-30T13:59:42Z</time>
      </trkpt>
      <trkpt lat="45.00802" lon="-1.11844">
        <ele>10.71</ele>
        <time>2021-06-30T13:59:43Z</time>
      </trkpt>
      <trkpt lat="45.00823" lon="-1.11987">
        <ele>7.83</ele>
        <time>2021-06-30T13:59:51Z</time>
      </trkpt>
      <trkpt lat="45.00818" lon="-1.12053">
        <ele>6.87</ele>
        <time>2021-06-30T13:59:54Z</time>
      </trkpt>
      <trkpt lat="45.00773" lon="-1.12368">
        <ele>8.31</ele>
        <time>2021-06-30T14:00:07Z</time>
      </trkpt>
      <trkpt lat="45.00735" lon="-1.12735">
        <ele>12.63</ele>
        <time>2021-06-30T14:00:21Z</time>
      </trkpt>
      <trkpt lat="45.00754" lon="-1.13084">
        <ele>11.19</ele>
        <time>2021-06-30T14:00:33Z</time>
      </trkpt>
      <trkpt lat="45.00787" lon="-1.13724">
        <ele>12.63</ele>
        <time>2021-06-30T14:00:55Z</time>
      </trkpt>
      <trkpt lat="45.00753" lon="-1.14041">
        <ele>16.96</ele>
        <time>2021-06-30T14:01:06Z</time>
      </trkpt>
      <trkpt lat="45.00672" lon="-1.14544">
        <ele>28.5</ele>
        <time>2021-06-30T14:01:25Z</time>
      </trkpt>
      <trkpt lat="45.00617" lon="-1.14719">
        <ele>27.05</ele>
        <time>2021-06-30T14:01:32Z</time>
      </trkpt>
      <trkpt lat="45.00509" lon="-1.14888">
        <ele>24.65</ele>
        <time>2021-06-30T14:01:40Z</time>
      </trkpt>
      <trkpt lat="45.00395" lon="-1.15054">
        <ele>21.77</ele>
        <time>2021-06-30T14:01:48Z</time>
      </trkpt>
      <trkpt lat="45.00382" lon="-1.15075">
        <ele>21.77</ele>
        <time>2021-06-30T14:01:49Z</time>
      </trkpt>
      <trkpt lat="45.00374" lon="-1.15099">
        <ele>21.77</ele>
        <time>2021-06-30T14:01:50Z</time>
      </trkpt>
      <trkpt lat="45.00367" lon="-1.15123">
        <ele>22.73</ele>
        <time>2021-06-30T14:01:51Z</time>
      </trkpt>
      <trkpt lat="45.00359" lon="-1.15149">
        <ele>22.73</ele>
        <time>2021-06-30T14:01:52Z</time>
      </trkpt>
      <trkpt lat="45.00353" lon="-1.15175">
        <ele>22.25</ele>
        <time>2021-06-30T14:01:53Z</time>
      </trkpt>
      <trkpt lat="45.00349" lon="-1.15201">
        <ele>22.73</ele>
        <time>2021-06-30T14:01:54Z</time>
      </trkpt>
      <trkpt lat="45.00348" lon="-1.15228">
        <ele>23.69</ele>
        <time>2021-06-30T14:01:55Z</time>
      </trkpt>
      <trkpt lat="45.00349" lon="-1.15284">
        <ele>24.17</ele>
        <time>2021-06-30T14:01:56Z</time>
      </trkpt>
      <trkpt lat="45.0036" lon="-1.15534">
        <ele>19.36</ele>
        <time>2021-06-30T14:02:06Z</time>
      </trkpt>
      <trkpt lat="45.00365" lon="-1.15574">
        <ele>18.4</ele>
        <time>2021-06-30T14:02:08Z</time>
      </trkpt>
      <trkpt lat="45.00368" lon="-1.15592">
        <ele>17.92</ele>
        <time>2021-06-30T14:02:09Z</time>
      </trkpt>
      <trkpt lat="45.00373" lon="-1.15609">
        <ele>17.92</ele>
        <time>2021-06-30T14:02:10Z</time>
      </trkpt>
      <trkpt lat="45.0038" lon="-1.15625">
        <ele>17.44</ele>
        <time>2021-06-30T14:02:11Z</time>
      </trkpt>
      <trkpt lat="45.00388" lon="-1.15641">
        <ele>16.96</ele>
        <time>2021-06-30T14:02:12Z</time>
      </trkpt>
      <trkpt lat="45.00397" lon="-1.15657">
        <ele>16.96</ele>
        <time>2021-06-30T14:02:13Z</time>
      </trkpt>
      <trkpt lat="45.00523" lon="-1.15818">
        <ele>13.12</ele>
        <time>2021-06-30T14:02:23Z</time>
      </trkpt>
      <trkpt lat="45.00607" lon="-1.15923">
        <ele>16.48</ele>
        <time>2021-06-30T14:02:29Z</time>
      </trkpt>
      <trkpt lat="45.00619" lon="-1.15939">
        <ele>15.52</ele>
        <time>2021-06-30T14:02:30Z</time>
      </trkpt>
      <trkpt lat="45.00628" lon="-1.15957">
        <ele>16</ele>
        <time>2021-06-30T14:02:31Z</time>
      </trkpt>
      <trkpt lat="45.00637" lon="-1.15976">
        <ele>15.52</ele>
        <time>2021-06-30T14:02:32Z</time>
      </trkpt>
      <trkpt lat="45.00642" lon="-1.15997">
        <ele>16</ele>
        <time>2021-06-30T14:02:33Z</time>
      </trkpt>
      <trkpt lat="45.00645" lon="-1.1602">
        <ele>16</ele>
        <time>2021-06-30T14:02:34Z</time>
      </trkpt>
      <trkpt lat="45.00649" lon="-1.16044">
        <ele>16.96</ele>
        <time>2021-06-30T14:02:35Z</time>
      </trkpt>
      <trkpt lat="45.00649" lon="-1.16066">
        <ele>17.44</ele>
        <time>2021-06-30T14:02:36Z</time>
      </trkpt>
      <trkpt lat="45.00648" lon="-1.16088">
        <ele>16.96</ele>
        <time>2021-06-30T14:02:37Z</time>
      </trkpt>
      <trkpt lat="45.00643" lon="-1.16111">
        <ele>16.96</ele>
        <time>2021-06-30T14:02:38Z</time>
      </trkpt>
      <trkpt lat="45.00637" lon="-1.16134">
        <ele>16.96</ele>
        <time>2021-06-30T14:02:39Z</time>
      </trkpt>
      <trkpt lat="45.00568" lon="-1.16355">
        <ele>14.08</ele>
        <time>2021-06-30T14:02:49Z</time>
      </trkpt>
      <trkpt lat="45.00556" lon="-1.165">
        <ele>14.08</ele>
        <time>2021-06-30T14:02:57Z</time>
      </trkpt>
      <trkpt lat="45.00548" lon="-1.16593">
        <ele>14.08</ele>
        <time>2021-06-30T14:03:06Z</time>
      </trkpt>
      <trkpt lat="45.0054" lon="-1.16757">
        <ele>13.6</ele>
        <time>2021-06-30T14:03:16Z</time>
      </trkpt>
      <trkpt lat="45.00548" lon="-1.16923">
        <ele>13.12</ele>
        <time>2021-06-30T14:03:27Z</time>
      </trkpt>
      <trkpt lat="45.00583" lon="-1.17161">
        <ele>12.63</ele>
        <time>2021-06-30T14:03:41Z</time>
      </trkpt>
      <trkpt lat="45.00605" lon="-1.17364">
        <ele>12.15</ele>
        <time>2021-06-30T14:03:53Z</time>
      </trkpt>
      <trkpt lat="45.00607" lon="-1.17508">
        <ele>12.63</ele>
        <time>2021-06-30T14:04:03Z</time>
      </trkpt>
      <trkpt lat="45.00612" lon="-1.17541">
        <ele>13.12</ele>
        <time>2021-06-30T14:04:06Z</time>
      </trkpt>
      <trkpt lat="45.00614" lon="-1.1755">
        <ele>13.12</ele>
        <time>2021-06-30T14:04:07Z</time>
      </trkpt>
      <trkpt lat="45.00616" lon="-1.17558">
        <ele>12.63</ele>
        <time>2021-06-30T14:04:08Z</time>
      </trkpt>
      <trkpt lat="45.00618" lon="-1.17564">
        <ele>12.63</ele>
        <time>2021-06-30T14:04:09Z</time>
      </trkpt>
      <trkpt lat="45.00619" lon="-1.17568">
        <ele>12.15</ele>
        <time>2021-06-30T14:04:10Z</time>
      </trkpt>
      <trkpt lat="45.00622" lon="-1.17573">
        <ele>12.15</ele>
        <time>2021-06-30T14:04:11Z</time>
      </trkpt>
      <trkpt lat="45.00626" lon="-1.17578">
        <ele>12.15</ele>
        <time>2021-06-30T14:04:12Z</time>
      </trkpt>
      <trkpt lat="45.00627" lon="-1.17586">
        <ele>11.67</ele>
        <time>2021-06-30T14:04:13Z</time>
      </trkpt>
      <trkpt lat="45.00629" lon="-1.17603">
        <ele>11.19</ele>
        <time>2021-06-30T14:04:14Z</time>
      </trkpt>
      <trkpt lat="45.00625" lon="-1.1761">
        <ele>11.67</ele>
        <time>2021-06-30T14:04:15Z</time>
      </trkpt>
      <trkpt lat="45.00625" lon="-1.1761">
        <ele>12.15</ele>
        <time>2021-06-30T14:04:16Z</time>
      </trkpt>
      <trkpt lat="45.00616" lon="-1.1763">
        <ele>12.15</ele>
        <time>2021-06-30T14:04:17Z</time>
      </trkpt>
      <trkpt lat="45.00616" lon="-1.1763">
        <ele>12.15</ele>
        <time>2021-06-30T14:04:18Z</time>
      </trkpt>
      <trkpt lat="45.00613" lon="-1.1764">
        <ele>12.15</ele>
        <time>2021-06-30T14:04:19Z</time>
      </trkpt>
      <trkpt lat="45.0061" lon="-1.17651">
        <ele>12.63</ele>
        <time>2021-06-30T14:04:20Z</time>
      </trkpt>
      <trkpt lat="45.006" lon="-1.17778">
        <ele>12.63</ele>
        <time>2021-06-30T14:04:28Z</time>
      </trkpt>
      <trkpt lat="45.00589" lon="-1.17832">
        <ele>12.15</ele>
        <time>2021-06-30T14:04:31Z</time>
      </trkpt>
      <trkpt lat="45.00508" lon="-1.17984">
        <ele>8.79</ele>
        <time>2021-06-30T14:04:40Z</time>
      </trkpt>
      <trkpt lat="45.0045" lon="-1.18065">
        <ele>3.98</ele>
        <time>2021-06-30T14:04:48Z</time>
      </trkpt>
      <trkpt lat="45.00402" lon="-1.18148">
        <ele>2.54</ele>
        <time>2021-06-30T14:04:58Z</time>
      </trkpt>
      <trkpt lat="45.00399" lon="-1.18155">
        <ele>2.54</ele>
        <time>2021-06-30T14:04:59Z</time>
      </trkpt>
      <trkpt lat="45.00391" lon="-1.18174">
        <ele>3.02</ele>
        <time>2021-06-30T14:05:00Z</time>
      </trkpt>
      <trkpt lat="45.00393" lon="-1.18192">
        <ele>3.02</ele>
        <time>2021-06-30T14:05:02Z</time>
      </trkpt>
      <trkpt lat="45.00393" lon="-1.18192">
        <ele>2.06</ele>
        <time>2021-06-30T14:05:03Z</time>
      </trkpt>
      <trkpt lat="45.0039" lon="-1.182">
        <ele>2.06</ele>
        <time>2021-06-30T14:05:04Z</time>
      </trkpt>
      <trkpt lat="45.00388" lon="-1.18208">
        <ele>1.58</ele>
        <time>2021-06-30T14:05:05Z</time>
      </trkpt>
      <trkpt lat="45.00384" lon="-1.18219">
        <ele>1.58</ele>
        <time>2021-06-30T14:05:06Z</time>
      </trkpt>
      <trkpt lat="45.00379" lon="-1.1822">
        <ele>1.1</ele>
        <time>2021-06-30T14:05:07Z</time>
      </trkpt>
      <trkpt lat="45.00373" lon="-1.18222">
        <ele>0.62</ele>
        <time>2021-06-30T14:05:08Z</time>
      </trkpt>
      <trkpt lat="45.00359" lon="-1.18219">
        <ele>0.14</ele>
        <time>2021-06-30T14:05:09Z</time>
      </trkpt>
      <trkpt lat="45.00353" lon="-1.18217">
        <ele>-0.34</ele>
        <time>2021-06-30T14:05:10Z</time>
      </trkpt>
      <trkpt lat="45.00352" lon="-1.18217">
        <ele>-1.3</ele>
        <time>2021-06-30T14:05:12Z</time>
      </trkpt>
      <trkpt lat="45.00339" lon="-1.1821">
        <ele>-0.82</ele>
        <time>2021-06-30T14:05:13Z</time>
      </trkpt>
      <trkpt lat="45.00333" lon="-1.18215">
        <ele>-1.3</ele>
        <time>2021-06-30T14:05:14Z</time>
      </trkpt>
      <trkpt lat="45.00328" lon="-1.1822">
        <ele>-1.79</ele>
        <time>2021-06-30T14:05:15Z</time>
      </trkpt>
      <trkpt lat="45.00322" lon="-1.18226">
        <ele>-2.27</ele>
        <time>2021-06-30T14:05:16Z</time>
      </trkpt>
      <trkpt lat="45.00317" lon="-1.18234">
        <ele>-2.27</ele>
        <time>2021-06-30T14:05:17Z</time>
      </trkpt>
      <trkpt lat="45.00273" lon="-1.18371">
        <ele>-6.11</ele>
        <time>2021-06-30T14:05:26Z</time>
      </trkpt>
      <trkpt lat="45.00255" lon="-1.18497">
        <ele>-6.11</ele>
        <time>2021-06-30T14:05:35Z</time>
      </trkpt>
      <trkpt lat="45.00255" lon="-1.18554">
        <ele>-6.59</ele>
        <time>2021-06-30T14:05:40Z</time>
      </trkpt>
      <trkpt lat="45.00255" lon="-1.18573">
        <ele>-6.59</ele>
        <time>2021-06-30T14:05:41Z</time>
      </trkpt>
      <trkpt lat="45.00255" lon="-1.18574">
        <ele>-6.59</ele>
        <time>2021-06-30T14:05:42Z</time>
      </trkpt>
      <trkpt lat="45.00254" lon="-1.18584">
        <ele>-5.63</ele>
        <time>2021-06-30T14:05:43Z</time>
      </trkpt>
      <trkpt lat="45.00253" lon="-1.18596">
        <ele>-4.67</ele>
        <time>2021-06-30T14:05:44Z</time>
      </trkpt>
      <trkpt lat="45.00247" lon="-1.18776">
        <ele>2.06</ele>
        <time>2021-06-30T14:05:57Z</time>
      </trkpt>
      <trkpt lat="45.00227" lon="-1.18947">
        <ele>6.87</ele>
        <time>2021-06-30T14:06:10Z</time>
      </trkpt>
      <trkpt lat="45.00187" lon="-1.19076">
        <ele>5.42</ele>
        <time>2021-06-30T14:06:22Z</time>
      </trkpt>
      <trkpt lat="45.00144" lon="-1.19181">
        <ele>5.91</ele>
        <time>2021-06-30T14:06:34Z</time>
      </trkpt>
      <trkpt lat="45.0013" lon="-1.19213">
        <ele>5.42</ele>
        <time>2021-06-30T14:06:38Z</time>
      </trkpt>
      <trkpt lat="45.00129" lon="-1.19217">
        <ele>5.42</ele>
        <time>2021-06-30T14:06:39Z</time>
      </trkpt>
      <trkpt lat="45.00133" lon="-1.19233">
        <ele>5.42</ele>
        <time>2021-06-30T14:06:40Z</time>
      </trkpt>
      <trkpt lat="45.00129" lon="-1.19243">
        <ele>5.42</ele>
        <time>2021-06-30T14:06:41Z</time>
      </trkpt>
      <trkpt lat="45.00132" lon="-1.19251">
        <ele>5.42</ele>
        <time>2021-06-30T14:06:42Z</time>
      </trkpt>
      <trkpt lat="45.00136" lon="-1.19259">
        <ele>5.42</ele>
        <time>2021-06-30T14:06:43Z</time>
      </trkpt>
      <trkpt lat="45.00142" lon="-1.19276">
        <ele>5.42</ele>
        <time>2021-06-30T14:06:44Z</time>
      </trkpt>
      <trkpt lat="45.00146" lon="-1.19284">
        <ele>5.42</ele>
        <time>2021-06-30T14:06:45Z</time>
      </trkpt>
      <trkpt lat="45.00146" lon="-1.19284">
        <ele>5.42</ele>
        <time>2021-06-30T14:06:46Z</time>
      </trkpt>
      <trkpt lat="45.00149" lon="-1.19291">
        <ele>5.42</ele>
        <time>2021-06-30T14:06:47Z</time>
      </trkpt>
      <trkpt lat="45.00154" lon="-1.19297">
        <ele>5.42</ele>
        <time>2021-06-30T14:06:48Z</time>
      </trkpt>
      <trkpt lat="45.00158" lon="-1.19302">
        <ele>5.42</ele>
        <time>2021-06-30T14:06:49Z</time>
      </trkpt>
      <trkpt lat="45.00166" lon="-1.19312">
        <ele>5.42</ele>
        <time>2021-06-30T14:06:50Z</time>
      </trkpt>
      <trkpt lat="45.00166" lon="-1.19312">
        <ele>5.91</ele>
        <time>2021-06-30T14:06:51Z</time>
      </trkpt>
      <trkpt lat="45.00194" lon="-1.19329">
        <ele>6.39</ele>
        <time>2021-06-30T14:06:57Z</time>
      </trkpt>
      <trkpt lat="45.00197" lon="-1.19334">
        <ele>6.39</ele>
        <time>2021-06-30T14:06:58Z</time>
      </trkpt>
      <trkpt lat="45.00201" lon="-1.19339">
        <ele>6.39</ele>
        <time>2021-06-30T14:06:59Z</time>
      </trkpt>
      <trkpt lat="45.00204" lon="-1.19343">
        <ele>6.39</ele>
        <time>2021-06-30T14:07:00Z</time>
      </trkpt>
      <trkpt lat="45.00206" lon="-1.19351">
        <ele>5.91</ele>
        <time>2021-06-30T14:07:01Z</time>
      </trkpt>
      <trkpt lat="45.00208" lon="-1.19358">
        <ele>5.91</ele>
        <time>2021-06-30T14:07:02Z</time>
      </trkpt>
      <trkpt lat="45.00207" lon="-1.19368">
        <ele>5.91</ele>
        <time>2021-06-30T14:07:03Z</time>
      </trkpt>
      <trkpt lat="45.00206" lon="-1.19378">
        <ele>5.91</ele>
        <time>2021-06-30T14:07:04Z</time>
      </trkpt>
      <trkpt lat="45.00191" lon="-1.19499">
        <ele>6.87</ele>
        <time>2021-06-30T14:07:18Z</time>
      </trkpt>
      <trkpt lat="45.00186" lon="-1.19533">
        <ele>7.35</ele>
        <time>2021-06-30T14:07:26Z</time>
      </trkpt>
    </trkseg>
  </trk>
</gpx>